Observation data for Fort Lewis CO on 03/24/2019      Previous  Date  Next       Current Mesonet Observations  Soil Data  Daily Summary Page  Observations in Plain Language
KFL1 240500Z 34004KT 01/M05 A3014 RMK A01 T00051049  RH  067%=      5-min Rain = 0
KFL1 240501Z 34004KT 01/M05 A3014 RMK A01 T00081048  RH  066%=      5-min Rain = 0
KFL1 240502Z 34003KT 01/M05 A3014 RMK A01 T00071049  RH  066%=      5-min Rain = 0
KFL1 240503Z 35003KT 01/M05 A3014 RMK A01 T00081048  RH  066%=      5-min Rain = 0
KFL1 240504Z 34003KT 01/M05 A3014 RMK A01 T00061049  RH  066%=      5-min Rain = 0
KFL1 240505Z 34004KT 01/M05 A3014 RMK A01 T00061050  RH  066%=      5-min Rain = 0
KFL1 240506Z 33004KT 01/M05 A3014 RMK A01 T00071049  RH  066%=      5-min Rain = 0
KFL1 240507Z 33003KT 01/M05 A3014 RMK A01 T00071050  RH  066%=      5-min Rain = 0
KFL1 240508Z 33003KT 01/M05 A3014 RMK A01 T00081049  RH  066%=      5-min Rain = 0
KFL1 240509Z 33003KT 01/M05 A3014 RMK A01 T00081049  RH  066%=      5-min Rain = 0
KFL1 240510Z 34003KT 01/M05 A3014 RMK A01 T00071050  RH  066%=      5-min Rain = 0
KFL1 240511Z 35002KT 01/M05 A3014 RMK A01 T00061050  RH  066%=      5-min Rain = 0
KFL1 240512Z 34003KT 01/M05 A3014 RMK A01 T00071050  RH  066%=      5-min Rain = 0
KFL1 240513Z 34003KT 01/M05 A3014 RMK A01 T00051051  RH  066%=      5-min Rain = 0
KFL1 240514Z 35002KT 01/M05 A3014 RMK A01 T00051049  RH  067%=      5-min Rain = 0
KFL1 240515Z 34002KT 00/M05 A3014 RMK A01 T00041049  RH  068%=      5-min Rain = 0
KFL1 240516Z 35002KT 00/M05 A3014 RMK A01 T00031048  RH  068%=      5-min Rain = 0
KFL1 240517Z 34002KT 00/M05 A3014 RMK A01 T00021049  RH  069%=      5-min Rain = 0
KFL1 240518Z 34003KT 00/M05 A3014 RMK A01 T00021047  RH  069%=      5-min Rain = 0
KFL1 240519Z 35002KT 00/M05 A3014 RMK A01 T00011048  RH  070%=      5-min Rain = 0
KFL1 240520Z 35002KT M00/M05 A3014 RMK A01 T10011049  RH  070%=      5-min Rain = 0
KFL1 240521Z 35002KT M00/M05 A3014 RMK A01 T10011049  RH  070%=      5-min Rain = 0
KFL1 240522Z 33002KT M00/M05 A3014 RMK A01 T10011048  RH  070%=      5-min Rain = 0
KFL1 240523Z 34002KT M00/M05 A3014 RMK A01 T10031050  RH  071%=      5-min Rain = 0
KFL1 240524Z 35002KT M00/M05 A3014 RMK A01 T10041051  RH  071%=      5-min Rain = 0
KFL1 240525Z 35003KT M00/M05 A3014 RMK A01 T10031050  RH  071%=      5-min Rain = 0
KFL1 240526Z 35003KT M00/M05 A3014 RMK A01 T10031050  RH  071%=      5-min Rain = 0
KFL1 240527Z 36002KT M00/M05 A3014 RMK A01 T10041050  RH  071%=      5-min Rain = 0
KFL1 240528Z 35002KT M00/M05 A3014 RMK A01 T10021049  RH  071%=      5-min Rain = 0
KFL1 240529Z 35002KT M00/M05 A3014 RMK A01 T10011047  RH  071%=      5-min Rain = 0
KFL1 240530Z 35002KT 00/M05 A3014 RMK A01 T00011047  RH  070%=      5-min Rain = 0
KFL1 240531Z 36002KT 00/M05 A3014 RMK A01 T00021046  RH  070%=      5-min Rain = 0
KFL1 240532Z 01002KT 00/M05 A3014 RMK A01 T00031045  RH  070%=      5-min Rain = 0
KFL1 240533Z 00002KT 00/M05 A3014 RMK A01 T00011047  RH  070%=      5-min Rain = 0
KFL1 240534Z 00002KT 00/M05 A3014 RMK A01 T00021046  RH  070%=      5-min Rain = 0
KFL1 240535Z 00002KT 00/M05 A3014 RMK A01 T00021047  RH  070%=      5-min Rain = 0
KFL1 240536Z 36002KT 00/M05 A3014 RMK A01 T00031046  RH  070%=      5-min Rain = 0
KFL1 240537Z 35002KT 00/M05 A3014 RMK A01 T00031046  RH  069%=      5-min Rain = 0
KFL1 240538Z 35002KT 01/M05 A3014 RMK A01 T00051047  RH  069%=      5-min Rain = 0
KFL1 240539Z 34002KT 00/M05 A3014 RMK A01 T00041049  RH  068%=      5-min Rain = 0
KFL1 240540Z 32003KT 00/M05 A3014 RMK A01 T00041050  RH  067%=      5-min Rain = 0
KFL1 240541Z 32003KT 01/M05 A3014 RMK A01 T00051050  RH  066%=      5-min Rain = 0
KFL1 240542Z 33003KT 01/M05 A3014 RMK A01 T00061051  RH  066%=      5-min Rain = 0
KFL1 240543Z 33003KT 01/M05 A3014 RMK A01 T00061051  RH  066%=      5-min Rain = 0
KFL1 240544Z 33004KT 01/M05 A3014 RMK A01 T00051052  RH  065%=      5-min Rain = 0
KFL1 240545Z 32004KT 01/M05 A3014 RMK A01 T00051053  RH  065%=      5-min Rain = 0
KFL1 240546Z 33004KT 01/M05 A3014 RMK A01 T00061052  RH  065%=      5-min Rain = 0
KFL1 240547Z 32004KT 00/M05 A3014 RMK A01 T00041053  RH  065%=      5-min Rain = 0
KFL1 240548Z 32004KT 01/M05 A3014 RMK A01 T00051053  RH  065%=      5-min Rain = 0
KFL1 240549Z 32004KT 01/M05 A3014 RMK A01 T00061053  RH  065%=      5-min Rain = 0
KFL1 240550Z 32004KT 01/M05 A3014 RMK A01 T00051053  RH  065%=      5-min Rain = 0
KFL1 240551Z 32004KT 01/M05 A3014 RMK A01 T00061053  RH  065%=      5-min Rain = 0
KFL1 240552Z 32004KT 01/M05 A3014 RMK A01 T00081052  RH  064%=      5-min Rain = 0
KFL1 240553Z 32003KT 01/M05 A3014 RMK A01 T00091052  RH  064%=      5-min Rain = 0
KFL1 240554Z 33003KT 01/M05 A3014 RMK A01 T00111051  RH  063%=      5-min Rain = 0
KFL1 240555Z 32003KT 01/M05 A3014 RMK A01 T00101053  RH  063%=      5-min Rain = 0
KFL1 240556Z 33002KT 01/M05 A3014 RMK A01 T00101052  RH  063%=      5-min Rain = 0
KFL1 240557Z 34002KT 01/M05 A3014 RMK A01 T00061054  RH  064%=      5-min Rain = 0
KFL1 240558Z 34002KT 00/M05 A3014 RMK A01 T00041053  RH  066%=      5-min Rain = 0
KFL1 240559Z 34002KT 00/M05 A3014 RMK A01 T00011054  RH  066%=      5-min Rain = 0
KFL1 240600Z 33003KT 00/05 A3014 RMK A01 T00000-54  RH  067%=      5-min Rain = 0
KFL1 240601Z 34003KT 00/05 A3014 RMK A01 T00-00-53  RH  068%=      5-min Rain = 0
KFL1 240602Z 34003KT 00/M05 A3014 RMK A01 T00011052  RH  067%=      5-min Rain = 0
KFL1 240603Z 34003KT 00/M05 A3014 RMK A01 T00031051  RH  067%=      5-min Rain = 0
KFL1 240604Z 34003KT 00/M05 A3014 RMK A01 T00021053  RH  067%=      5-min Rain = 0
KFL1 240605Z 34003KT 00/M05 A3014 RMK A01 T00021052  RH  067%=      5-min Rain = 0
KFL1 240606Z 36003KT 00/M05 A3014 RMK A01 T00031051  RH  067%=      5-min Rain = 0
KFL1 240607Z 01002KT 00/M05 A3014 RMK A01 T00021051  RH  068%=      5-min Rain = 0
KFL1 240608Z 01002KT 00/M05 A3014 RMK A01 T00021050  RH  068%=      5-min Rain = 0
KFL1 240609Z 01002KT 00/M05 A3014 RMK A01 T00011051  RH  068%=      5-min Rain = 0
KFL1 240610Z 01002KT 00/M05 A3014 RMK A01 T00011051  RH  068%=      5-min Rain = 0
KFL1 240611Z 00002KT 00/M05 A3014 RMK A01 T00011051  RH  068%=      5-min Rain = 0
KFL1 240612Z 01002KT 00/M05 A3014 RMK A01 T00021051  RH  068%=      5-min Rain = 0
KFL1 240613Z 03002KT 00/M05 A3014 RMK A01 T00021049  RH  068%=      5-min Rain = 0
KFL1 240614Z 03002KT 00/05 A3014 RMK A01 T00000-51  RH  069%=      5-min Rain = 0
KFL1 240615Z 06002KT 00/05 A3014 RMK A01 T00000-51  RH  069%=      5-min Rain = 0
KFL1 240616Z 06002KT 00/M05 A3014 RMK A01 T00011050  RH  069%=      5-min Rain = 0
KFL1 240617Z 07002KT 00/M05 A3014 RMK A01 T00011050  RH  069%=      5-min Rain = 0
KFL1 240618Z 06002KT 00/05 A3014 RMK A01 T00-00-51  RH  069%=      5-min Rain = 0
KFL1 240619Z 06003KT 00/05 A3014 RMK A01 T00000-51  RH  068%=      5-min Rain = 0
KFL1 240620Z 06002KT 00/M05 A3014 RMK A01 T00021050  RH  068%=      5-min Rain = 0
KFL1 240621Z 06002KT 00/M05 A3014 RMK A01 T00041049  RH  067%=      5-min Rain = 0
KFL1 240622Z 06003KT 01/M05 A3014 RMK A01 T00051049  RH  067%=      5-min Rain = 0
KFL1 240623Z 01003KT 00/M05 A3014 RMK A01 T00041051  RH  066%=      5-min Rain = 0
KFL1 240624Z 35002KT 01/M05 A3014 RMK A01 T00051051  RH  066%=      5-min Rain = 0
KFL1 240625Z 05001KT 01/M05 A3014 RMK A01 T00061051  RH  065%=      5-min Rain = 0
KFL1 240626Z 06002KT 01/M05 A3014 RMK A01 T00071052  RH  065%=      5-min Rain = 0
KFL1 240627Z 06002KT 01/M05 A3014 RMK A01 T00081051  RH  065%=      5-min Rain = 0
KFL1 240628Z 06002KT 01/M05 A3014 RMK A01 T00081051  RH  065%=      5-min Rain = 0
KFL1 240629Z 06002KT 01/M05 A3014 RMK A01 T00081049  RH  065%=      5-min Rain = 0
KFL1 240630Z 05002KT 01/M05 A3014 RMK A01 T00071051  RH  066%=      5-min Rain = 0
KFL1 240631Z 03003KT 01/M05 A3014 RMK A01 T00061051  RH  066%=      5-min Rain = 0
KFL1 240632Z 03002KT 01/M05 A3014 RMK A01 T00061051  RH  066%=      5-min Rain = 0
KFL1 240633Z 05002KT 01/M05 A3014 RMK A01 T00071051  RH  065%=      5-min Rain = 0
KFL1 240634Z 05002KT 01/M05 A3014 RMK A01 T00081050  RH  065%=      5-min Rain = 0
KFL1 240635Z 04002KT 01/M05 A3014 RMK A01 T00081050  RH  065%=      5-min Rain = 0
KFL1 240636Z 03002KT 01/M05 A3014 RMK A01 T00081049  RH  066%=      5-min Rain = 0
KFL1 240637Z 03002KT 01/M05 A3014 RMK A01 T00081049  RH  066%=      5-min Rain = 0
KFL1 240638Z 04002KT 01/M05 A3014 RMK A01 T00061050  RH  066%=      5-min Rain = 0
KFL1 240639Z 06002KT 01/M05 A3014 RMK A01 T00051052  RH  066%=      5-min Rain = 0
KFL1 240640Z 06002KT 01/M05 A3014 RMK A01 T00051051  RH  066%=      5-min Rain = 0
KFL1 240641Z 06002KT 00/M05 A3014 RMK A01 T00041052  RH  066%=      5-min Rain = 0
KFL1 240642Z 05002KT 00/M05 A3014 RMK A01 T00041052  RH  066%=      5-min Rain = 0
KFL1 240643Z 04002KT 01/M05 A3014 RMK A01 T00051051  RH  066%=      5-min Rain = 0
KFL1 240644Z 07002KT 00/M05 A3014 RMK A01 T00041052  RH  066%=      5-min Rain = 0
KFL1 240645Z 07002KT 01/M05 A3014 RMK A01 T00051052  RH  066%=      5-min Rain = 0
KFL1 240646Z 07002KT 01/M05 A3014 RMK A01 T00071050  RH  066%=      5-min Rain = 0
KFL1 240647Z 08002KT 01/M05 A3014 RMK A01 T00061051  RH  066%=      5-min Rain = 0
KFL1 240648Z 08002KT 01/M05 A3014 RMK A01 T00061051  RH  066%=      5-min Rain = 0
KFL1 240649Z 09002KT 01/M05 A3014 RMK A01 T00061051  RH  066%=      5-min Rain = 0
KFL1 240650Z 09002KT 01/M05 A3014 RMK A01 T00051052  RH  066%=      5-min Rain = 0
KFL1 240651Z 08002KT 00/M05 A3014 RMK A01 T00041052  RH  066%=      5-min Rain = 0
KFL1 240652Z 09003KT 00/M05 A3014 RMK A01 T00031053  RH  066%=      5-min Rain = 0
KFL1 240653Z 09003KT 00/M05 A3014 RMK A01 T00041051  RH  066%=      5-min Rain = 0
KFL1 240654Z 09003KT 00/M05 A3014 RMK A01 T00021053  RH  066%=      5-min Rain = 0
KFL1 240655Z 09002KT 00/M05 A3014 RMK A01 T00031052  RH  067%=      5-min Rain = 0
KFL1 240656Z 08003KT 00/M05 A3014 RMK A01 T00021053  RH  067%=      5-min Rain = 0
KFL1 240657Z 08002KT 00/M05 A3014 RMK A01 T00021053  RH  067%=      5-min Rain = 0
KFL1 240658Z 08002KT 00/M05 A3014 RMK A01 T00041051  RH  067%=      5-min Rain = 0
KFL1 240659Z 09002KT 00/M05 A3014 RMK A01 T00021053  RH  067%=      5-min Rain = 0
KFL1 240700Z 09002KT 00/M05 A3014 RMK A01 T00021052  RH  067%=      5-min Rain = 0
KFL1 240701Z 10002KT 00/M05 A3014 RMK A01 T00031052  RH  066%=      5-min Rain = 0
KFL1 240702Z 11002KT 00/M05 A3014 RMK A01 T00031053  RH  066%=      5-min Rain = 0
KFL1 240703Z 11002KT 00/M05 A3014 RMK A01 T00041053  RH  066%=      5-min Rain = 0
KFL1 240704Z 10001KT 01/M05 A3014 RMK A01 T00051051  RH  066%=      5-min Rain = 0
KFL1 240705Z 10001KT 01/M05 A3014 RMK A01 T00061052  RH  065%=      5-min Rain = 0
KFL1 240706Z 12001KT 01/M05 A3014 RMK A01 T00051053  RH  065%=      5-min Rain = 0
KFL1 240707Z 12001KT 01/M05 A3014 RMK A01 T00061052  RH  065%=      5-min Rain = 0
KFL1 240708Z 12001KT 01/M05 A3014 RMK A01 T00081052  RH  064%=      5-min Rain = 0
KFL1 240709Z 13001KT 01/M05 A3014 RMK A01 T00081052  RH  064%=      5-min Rain = 0
KFL1 240710Z 13001KT 01/M05 A3014 RMK A01 T00091051  RH  064%=      5-min Rain = 0
KFL1 240711Z 14001KT 01/M05 A3014 RMK A01 T00081052  RH  064%=      5-min Rain = 0
KFL1 240712Z 14001KT 01/M05 A3014 RMK A01 T00091052  RH  064%=      5-min Rain = 0
KFL1 240713Z 15001KT 01/M05 A3014 RMK A01 T00081053  RH  064%=      5-min Rain = 0
KFL1 240714Z 13001KT 01/M05 A3014 RMK A01 T00081052  RH  064%=      5-min Rain = 0
KFL1 240715Z 09001KT 01/M05 A3014 RMK A01 T00071053  RH  064%=      5-min Rain = 0
KFL1 240716Z 09001KT 00/M06 A3014 RMK A01 T00031057  RH  064%=      5-min Rain = 0
KFL1 240717Z 10001KT 00/M06 A3014 RMK A01 T00021055  RH  066%=      5-min Rain = 0
KFL1 240718Z 12001KT 00/M06 A3014 RMK A01 T00011055  RH  066%=      5-min Rain = 0
KFL1 240719Z 14001KT 00/M05 A3014 RMK A01 T00031053  RH  066%=      5-min Rain = 0
KFL1 240720Z 10001KT 00/M05 A3014 RMK A01 T00041052  RH  066%=      5-min Rain = 0
KFL1 240721Z 08001KT 01/M05 A3014 RMK A01 T00051053  RH  065%=      5-min Rain = 0
KFL1 240722Z 10000KT 01/M05 A3014 RMK A01 T00051054  RH  064%=      5-min Rain = 0
KFL1 240723Z 00000KT 00/M06 A3014 RMK A01 T00031055  RH  065%=      5-min Rain = 0
KFL1 240724Z 00000KT 00/M05 A3014 RMK A01 T00041053  RH  065%=      5-min Rain = 0
KFL1 240725Z 00000KT 01/M05 A3014 RMK A01 T00051053  RH  065%=      5-min Rain = 0
KFL1 240726Z 00000KT 00/M06 A3014 RMK A01 T00041056  RH  064%=      5-min Rain = 0
KFL1 240727Z 32000KT 00/M06 A3014 RMK A01 T00031055  RH  065%=      5-min Rain = 0
KFL1 240728Z 34001KT 00/M06 A3014 RMK A01 T00011058  RH  064%=      5-min Rain = 0
KFL1 240729Z 34000KT 00/M06 A3014 RMK A01 T00011056  RH  065%=      5-min Rain = 0
KFL1 240730Z 00000KT 00/M05 A3014 RMK A01 T00041053  RH  066%=      5-min Rain = 0
KFL1 240731Z 01000KT 00/M06 A3014 RMK A01 T00041057  RH  064%=      5-min Rain = 0
KFL1 240732Z 00000KT M00/M06 A3014 RMK A01 T10031064  RH  063%=      5-min Rain = 0
KFL1 240733Z 01001KT M01/M06 A3014 RMK A01 T10081064  RH  066%=      5-min Rain = 0
KFL1 240734Z 02001KT M01/M06 A3014 RMK A01 T10091063  RH  067%=      5-min Rain = 0
KFL1 240735Z 01001KT M01/M06 A3014 RMK A01 T10131064  RH  068%=      5-min Rain = 0
KFL1 240736Z 02001KT M01/M06 A3014 RMK A01 T10141062  RH  069%=      5-min Rain = 0
KFL1 240737Z 04001KT M01/M06 A3014 RMK A01 T10141062  RH  070%=      5-min Rain = 0
KFL1 240738Z 04002KT M01/M06 A3014 RMK A01 T10141061  RH  070%=      5-min Rain = 0
KFL1 240739Z 04002KT M01/M06 A3014 RMK A01 T10131059  RH  071%=      5-min Rain = 0
KFL1 240740Z 05002KT M01/M06 A3014 RMK A01 T10111058  RH  071%=      5-min Rain = 0
KFL1 240741Z 05002KT M01/M06 A3014 RMK A01 T10091057  RH  070%=      5-min Rain = 0
KFL1 240742Z 05003KT M01/M06 A3014 RMK A01 T10091059  RH  069%=      5-min Rain = 0
KFL1 240743Z 06003KT M01/M06 A3014 RMK A01 T10091058  RH  069%=      5-min Rain = 0
KFL1 240744Z 07003KT M01/M06 A3014 RMK A01 T10091057  RH  070%=      5-min Rain = 0
KFL1 240745Z 06003KT M01/M06 A3014 RMK A01 T10071055  RH  070%=      5-min Rain = 0
KFL1 240746Z 06004KT M01/M06 A3014 RMK A01 T10051055  RH  069%=      5-min Rain = 0
KFL1 240747Z 06003KT M01/M06 A3014 RMK A01 T10051056  RH  069%=      5-min Rain = 0
KFL1 240748Z 06003KT M00/M05 A3014 RMK A01 T10041053  RH  069%=      5-min Rain = 0
KFL1 240749Z 06003KT M00/M05 A3014 RMK A01 T10031053  RH  069%=      5-min Rain = 0
KFL1 240750Z 06003KT M00/M05 A3014 RMK A01 T10011053  RH  068%=      5-min Rain = 0
KFL1 240751Z 05003KT 00/05 A3014 RMK A01 T00000-53  RH  067%=      5-min Rain = 0
KFL1 240752Z 05003KT 00/06 A3014 RMK A01 T00-00-56  RH  066%=      5-min Rain = 0
KFL1 240753Z 05003KT M00/M06 A3014 RMK A01 T10021058  RH  066%=      5-min Rain = 0
KFL1 240754Z 05003KT M01/M06 A3014 RMK A01 T10051059  RH  067%=      5-min Rain = 0
KFL1 240755Z 06002KT M00/M05 A3014 RMK A01 T10031054  RH  068%=      5-min Rain = 0
KFL1 240756Z 05002KT M00/M05 A3014 RMK A01 T10011051  RH  069%=      5-min Rain = 0
KFL1 240757Z 06002KT 00/05 A3014 RMK A01 T00000-52  RH  068%=      5-min Rain = 0
KFL1 240758Z 06002KT 00/M05 A3014 RMK A01 T00011052  RH  068%=      5-min Rain = 0
KFL1 240759Z 06002KT 00/M05 A3014 RMK A01 T00021052  RH  067%=      5-min Rain = 0
KFL1 240800Z 06002KT 00/M05 A3014 RMK A01 T00021052  RH  067%=      5-min Rain = 0
KFL1 240801Z 06002KT 00/M05 A3014 RMK A01 T00031052  RH  067%=      5-min Rain = 0
KFL1 240802Z 06003KT 00/M05 A3014 RMK A01 T00031051  RH  067%=      5-min Rain = 0
KFL1 240803Z 06003KT 00/M05 A3014 RMK A01 T00041051  RH  067%=      5-min Rain = 0
KFL1 240804Z 07003KT 01/M05 A3014 RMK A01 T00051050  RH  067%=      5-min Rain = 0
KFL1 240805Z 07003KT 00/M05 A3014 RMK A01 T00041051  RH  067%=      5-min Rain = 0
KFL1 240806Z 08002KT 00/M05 A3014 RMK A01 T00041051  RH  067%=      5-min Rain = 0
KFL1 240807Z 08003KT 00/M05 A3014 RMK A01 T00041051  RH  067%=      5-min Rain = 0
KFL1 240808Z 07003KT 00/M05 A3014 RMK A01 T00041050  RH  067%=      5-min Rain = 0
KFL1 240809Z 08003KT 00/M05 A3014 RMK A01 T00041050  RH  067%=      5-min Rain = 0
KFL1 240810Z 08003KT 01/M05 A3014 RMK A01 T00051049  RH  067%=      5-min Rain = 0
KFL1 240811Z 08003KT 00/M05 A3014 RMK A01 T00041049  RH  067%=      5-min Rain = 0
KFL1 240812Z 07004KT 01/M05 A3014 RMK A01 T00051049  RH  067%=      5-min Rain = 0
KFL1 240813Z 07004KT 01/M05 A3014 RMK A01 T00051049  RH  067%=      5-min Rain = 0
KFL1 240814Z 06004KT 01/M05 A3014 RMK A01 T00051050  RH  067%=      5-min Rain = 0
KFL1 240815Z 06004KT 01/M05 A3014 RMK A01 T00061049  RH  067%=      5-min Rain = 0
KFL1 240816Z 06004KT 01/M05 A3014 RMK A01 T00061049  RH  067%=      5-min Rain = 0
KFL1 240817Z 06004KT 01/M05 A3014 RMK A01 T00061049  RH  067%=      5-min Rain = 0
KFL1 240818Z 06005KT 01/M05 A3014 RMK A01 T00061048  RH  067%=      5-min Rain = 0
KFL1 240819Z 06005KT 01/M05 A3014 RMK A01 T00051049  RH  067%=      5-min Rain = 0
KFL1 240820Z 06005KT 01/M05 A3014 RMK A01 T00061049  RH  067%=      5-min Rain = 0
KFL1 240821Z 05005KT 01/M05 A3014 RMK A01 T00071048  RH  067%=      5-min Rain = 0
KFL1 240822Z 06005KT 01/M05 A3014 RMK A01 T00081047  RH  067%=      5-min Rain = 0
KFL1 240823Z 06005KT 01/M05 A3014 RMK A01 T00081047  RH  067%=      5-min Rain = 0
KFL1 240824Z 06005KT 01/M05 A3014 RMK A01 T00081047  RH  067%=      5-min Rain = 0
KFL1 240825Z 06005KT 01/M05 A3014 RMK A01 T00091046  RH  067%=      5-min Rain = 0
KFL1 240826Z 05005KT 01/M05 A3014 RMK A01 T00081047  RH  067%=      5-min Rain = 0
KFL1 240827Z 05005KT 01/M05 A3014 RMK A01 T00081047  RH  067%=      5-min Rain = 0
KFL1 240828Z 05005KT 01/M05 A3014 RMK A01 T00071047  RH  067%=      5-min Rain = 0
KFL1 240829Z 05005KT 01/M05 A3014 RMK A01 T00081046  RH  067%=      5-min Rain = 0
KFL1 240830Z 05004KT 01/M05 A3014 RMK A01 T00071046  RH  067%=      5-min Rain = 0
KFL1 240831Z 05004KT 01/M05 A3014 RMK A01 T00081045  RH  068%=      5-min Rain = 0
KFL1 240832Z 05004KT 01/M05 A3014 RMK A01 T00061046  RH  068%=      5-min Rain = 0
KFL1 240833Z 05004KT 01/M04 A3014 RMK A01 T00091044  RH  068%=      5-min Rain = 0
KFL1 240834Z 05005KT 01/M05 A3014 RMK A01 T00071046  RH  068%=      5-min Rain = 0
KFL1 240835Z 05005KT 01/M05 A3014 RMK A01 T00071045  RH  068%=      5-min Rain = 0
KFL1 240836Z 05005KT 01/M05 A3014 RMK A01 T00081046  RH  067%=      5-min Rain = 0
KFL1 240837Z 05005KT 01/M05 A3013 RMK A01 T00091045  RH  067%=      5-min Rain = 0
KFL1 240838Z 05005KT 01/M05 A3013 RMK A01 T00091045  RH  067%=      5-min Rain = 0
KFL1 240839Z 05005KT 01/M04 A3013 RMK A01 T00121043  RH  067%=      5-min Rain = 0
KFL1 240840Z 04005KT 01/M04 A3013 RMK A01 T00121043  RH  067%=      5-min Rain = 0
KFL1 240841Z 05005KT 01/M04 A3013 RMK A01 T00121044  RH  067%=      5-min Rain = 0
KFL1 240842Z 05005KT 01/M05 A3013 RMK A01 T00111045  RH  066%=      5-min Rain = 0
KFL1 240843Z 05005KT 01/M04 A3013 RMK A01 T00121044  RH  066%=      5-min Rain = 0
KFL1 240844Z 05005KT 01/M05 A3013 RMK A01 T00121045  RH  066%=      5-min Rain = 0
KFL1 240845Z 05006KT 01/M05 A3013 RMK A01 T00121045  RH  066%=      5-min Rain = 0
KFL1 240846Z 05006KT 01/M04 A3013 RMK A01 T00131044  RH  066%=      5-min Rain = 0
KFL1 240847Z 05005KT 01/M04 A3013 RMK A01 T00131044  RH  066%=      5-min Rain = 0
KFL1 240848Z 05005KT 01/M05 A3013 RMK A01 T00121045  RH  066%=      5-min Rain = 0
KFL1 240849Z 06004KT 01/M04 A3013 RMK A01 T00131044  RH  066%=      5-min Rain = 0
KFL1 240850Z 05004KT 01/M05 A3013 RMK A01 T00121046  RH  066%=      5-min Rain = 0
KFL1 240851Z 05004KT 01/M05 A3013 RMK A01 T00121046  RH  066%=      5-min Rain = 0
KFL1 240852Z 05004KT 01/M05 A3014 RMK A01 T00121045  RH  066%=      5-min Rain = 0
KFL1 240853Z 05004KT 01/M05 A3014 RMK A01 T00121045  RH  065%=      5-min Rain = 0
KFL1 240854Z 05005KT 01/M05 A3014 RMK A01 T00121046  RH  065%=      5-min Rain = 0
KFL1 240855Z 04004KT 01/M05 A3014 RMK A01 T00121046  RH  065%=      5-min Rain = 0
KFL1 240856Z 04004KT 01/M05 A3014 RMK A01 T00131045  RH  065%=      5-min Rain = 0
KFL1 240857Z 05005KT 01/M05 A3014 RMK A01 T00131045  RH  065%=      5-min Rain = 0
KFL1 240858Z 04005KT 01/M05 A3014 RMK A01 T00141046  RH  065%=      5-min Rain = 0
KFL1 240859Z 04004KT 01/M05 A3014 RMK A01 T00131047  RH  064%=      5-min Rain = 0
KFL1 240900Z 04004KT 01/M05 A3014 RMK A01 T00131047  RH  064%=      5-min Rain = 0
KFL1 240901Z 04004KT 01/M05 A3014 RMK A01 T00131046  RH  064%=      5-min Rain = 0
KFL1 240902Z 04004KT 01/M05 A3014 RMK A01 T00141046  RH  064%=      5-min Rain = 0
KFL1 240903Z 04004KT 01/M05 A3014 RMK A01 T00141046  RH  064%=      5-min Rain = 0
KFL1 240904Z 04004KT 02/M05 A3014 RMK A01 T00151046  RH  064%=      5-min Rain = 0
KFL1 240905Z 04004KT 01/M05 A3014 RMK A01 T00141046  RH  064%=      5-min Rain = 0
KFL1 240906Z 04005KT 01/M05 A3014 RMK A01 T00141046  RH  064%=      5-min Rain = 0
KFL1 240907Z 04005KT 01/M05 A3014 RMK A01 T00131047  RH  064%=      5-min Rain = 0
KFL1 240908Z 04004KT 01/M05 A3014 RMK A01 T00141046  RH  064%=      5-min Rain = 0
KFL1 240909Z 04004KT 01/M05 A3014 RMK A01 T00131047  RH  064%=      5-min Rain = 0
KFL1 240910Z 04003KT 01/M05 A3014 RMK A01 T00131046  RH  064%=      5-min Rain = 0
KFL1 240911Z 04003KT 01/M05 A3014 RMK A01 T00131047  RH  065%=      5-min Rain = 0
KFL1 240912Z 05004KT 01/M05 A3014 RMK A01 T00121047  RH  065%=      5-min Rain = 0
KFL1 240913Z 04004KT 01/M05 A3014 RMK A01 T00121047  RH  065%=      5-min Rain = 0
KFL1 240914Z 04004KT 01/M05 A3014 RMK A01 T00121047  RH  065%=      5-min Rain = 0
KFL1 240915Z 04005KT 01/M05 A3014 RMK A01 T00131047  RH  065%=      5-min Rain = 0
KFL1 240916Z 04005KT 01/M05 A3014 RMK A01 T00121048  RH  064%=      5-min Rain = 0
KFL1 240917Z 03005KT 01/M05 A3014 RMK A01 T00141046  RH  064%=      5-min Rain = 0
KFL1 240918Z 03005KT 01/M05 A3014 RMK A01 T00141046  RH  064%=      5-min Rain = 0
KFL1 240919Z 03005KT 01/M05 A3014 RMK A01 T00131047  RH  064%=      5-min Rain = 0
KFL1 240920Z 03006KT 01/M05 A3014 RMK A01 T00121049  RH  064%=      5-min Rain = 0
KFL1 240921Z 03006KT 01/M05 A3014 RMK A01 T00141045  RH  065%=      5-min Rain = 0
KFL1 240922Z 02005KT 01/M05 A3014 RMK A01 T00091045  RH  067%=      5-min Rain = 0
KFL1 240923Z 02006KT 00/M05 A3014 RMK A01 T00041045  RH  070%=      5-min Rain = 0
KFL1 240924Z 02006KT 00/05 A3014 RMK A01 T00-00-45  RH  072%=      5-min Rain = 0
KFL1 240925Z 03006KT M00/M04 A3014 RMK A01 T10031044  RH  073%=      5-min Rain = 0
KFL1 240926Z 03006KT M00/M05 A3014 RMK A01 T10041045  RH  074%=      5-min Rain = 0
KFL1 240927Z 03006KT M00/M05 A3014 RMK A01 T10041045  RH  074%=      5-min Rain = 0
KFL1 240928Z 03005KT M00/M04 A3014 RMK A01 T10021044  RH  074%=      5-min Rain = 0
KFL1 240929Z 04005KT M00/M04 A3013 RMK A01 T10021044  RH  073%=      5-min Rain = 0
KFL1 240930Z 04005KT 00/04 A3013 RMK A01 T00-00-44  RH  072%=      5-min Rain = 0
KFL1 240931Z 04005KT 00/M05 A3013 RMK A01 T00021045  RH  071%=      5-min Rain = 0
KFL1 240932Z 04004KT 01/M05 A3013 RMK A01 T00051046  RH  069%=      5-min Rain = 0
KFL1 240933Z 04004KT 01/M05 A3013 RMK A01 T00071047  RH  067%=      5-min Rain = 0
KFL1 240934Z 04004KT 01/M05 A3013 RMK A01 T00081047  RH  066%=      5-min Rain = 0
KFL1 240935Z 03004KT 01/M05 A3013 RMK A01 T00081048  RH  066%=      5-min Rain = 0
KFL1 240936Z 03004KT 01/M05 A3013 RMK A01 T00081047  RH  066%=      5-min Rain = 0
KFL1 240937Z 03006KT 01/M05 A3013 RMK A01 T00071048  RH  067%=      5-min Rain = 0
KFL1 240938Z 03006KT 01/M05 A3013 RMK A01 T00081047  RH  067%=      5-min Rain = 0
KFL1 240939Z 03006KT 01/M05 A3013 RMK A01 T00081047  RH  067%=      5-min Rain = 0
KFL1 240940Z 03006KT 01/M05 A3013 RMK A01 T00071047  RH  067%=      5-min Rain = 0
KFL1 240941Z 03005KT 01/M05 A3013 RMK A01 T00071046  RH  068%=      5-min Rain = 0
KFL1 240942Z 03005KT 01/M05 A3013 RMK A01 T00051045  RH  069%=      5-min Rain = 0
KFL1 240943Z 04005KT 00/M04 A3013 RMK A01 T00041043  RH  071%=      5-min Rain = 0
KFL1 240944Z 03005KT 00/M05 A3013 RMK A01 T00021047  RH  070%=      5-min Rain = 0
KFL1 240945Z 04006KT 01/M05 A3013 RMK A01 T00061047  RH  068%=      5-min Rain = 0
KFL1 240946Z 04005KT 01/M05 A3013 RMK A01 T00081047  RH  067%=      5-min Rain = 0
KFL1 240947Z 03006KT 01/M05 A3013 RMK A01 T00091048  RH  066%=      5-min Rain = 0
KFL1 240948Z 04006KT 01/M05 A3013 RMK A01 T00101048  RH  065%=      5-min Rain = 0
KFL1 240949Z 04006KT 01/M05 A3013 RMK A01 T00111049  RH  064%=      5-min Rain = 0
KFL1 240950Z 04005KT 01/M05 A3013 RMK A01 T00121049  RH  064%=      5-min Rain = 0
KFL1 240951Z 04005KT 01/M05 A3013 RMK A01 T00131049  RH  063%=      5-min Rain = 0
KFL1 240952Z 04005KT 02/M05 A3013 RMK A01 T00151048  RH  063%=      5-min Rain = 0
KFL1 240953Z 04005KT 02/M05 A3013 RMK A01 T00151050  RH  062%=      5-min Rain = 0
KFL1 240954Z 04005KT 02/M05 A3013 RMK A01 T00151051  RH  062%=      5-min Rain = 0
KFL1 240955Z 04005KT 02/M05 A3013 RMK A01 T00171049  RH  061%=      5-min Rain = 0
KFL1 240956Z 03005KT 02/M05 A3013 RMK A01 T00161050  RH  061%=      5-min Rain = 0
KFL1 240957Z 03005KT 02/M05 A3013 RMK A01 T00161049  RH  062%=      5-min Rain = 0
KFL1 240958Z 03005KT 01/M05 A3013 RMK A01 T00141050  RH  062%=      5-min Rain = 0
KFL1 240959Z 03006KT 01/M05 A3013 RMK A01 T00141050  RH  063%=      5-min Rain = 0
KFL1 241000Z 03005KT 01/M05 A3013 RMK A01 T00141049  RH  063%=      5-min Rain = 0
KFL1 241001Z 03005KT 02/M05 A3013 RMK A01 T00151049  RH  063%=      5-min Rain = 0
KFL1 241002Z 03005KT 01/M05 A3013 RMK A01 T00141050  RH  062%=      5-min Rain = 0
KFL1 241003Z 04003KT 02/M05 A3013 RMK A01 T00151051  RH  062%=      5-min Rain = 0
KFL1 241004Z 04004KT 02/M05 A3013 RMK A01 T00151051  RH  062%=      5-min Rain = 0
KFL1 241005Z 04004KT 02/M05 A3013 RMK A01 T00151051  RH  062%=      5-min Rain = 0
KFL1 241006Z 04004KT 02/M05 A3013 RMK A01 T00151049  RH  062%=      5-min Rain = 0
KFL1 241007Z 04003KT 01/M05 A3013 RMK A01 T00141048  RH  063%=      5-min Rain = 0
KFL1 241008Z 03004KT 01/M05 A3013 RMK A01 T00121050  RH  064%=      5-min Rain = 0
KFL1 241009Z 04005KT 01/M05 A3013 RMK A01 T00121048  RH  064%=      5-min Rain = 0
KFL1 241010Z 04005KT 01/M05 A3013 RMK A01 T00101049  RH  064%=      5-min Rain = 0
KFL1 241011Z 04005KT 01/M05 A3013 RMK A01 T00121048  RH  064%=      5-min Rain = 0
KFL1 241012Z 04005KT 01/M05 A3013 RMK A01 T00111049  RH  064%=      5-min Rain = 0
KFL1 241013Z 04005KT 01/M05 A3013 RMK A01 T00111049  RH  064%=      5-min Rain = 0
KFL1 241014Z 04004KT 01/M05 A3013 RMK A01 T00101049  RH  065%=      5-min Rain = 0
KFL1 241015Z 04004KT 01/M05 A3013 RMK A01 T00091049  RH  065%=      5-min Rain = 0
KFL1 241016Z 04004KT 01/M05 A3013 RMK A01 T00071049  RH  066%=      5-min Rain = 0
KFL1 241017Z 04004KT 01/M05 A3013 RMK A01 T00061048  RH  067%=      5-min Rain = 0
KFL1 241018Z 04004KT 01/M05 A3013 RMK A01 T00051048  RH  068%=      5-min Rain = 0
KFL1 241019Z 05004KT 00/M05 A3013 RMK A01 T00041048  RH  068%=      5-min Rain = 0
KFL1 241020Z 05004KT 00/M05 A3013 RMK A01 T00031048  RH  069%=      5-min Rain = 0
KFL1 241021Z 04004KT 00/M05 A3013 RMK A01 T00011048  RH  069%=      5-min Rain = 0
KFL1 241022Z 05004KT 00/05 A3013 RMK A01 T00-00-48  RH  070%=      5-min Rain = 0
KFL1 241023Z 05005KT M00/M05 A3013 RMK A01 T10011048  RH  071%=      5-min Rain = 0
KFL1 241024Z 05005KT 00/05 A3013 RMK A01 T00-00-46  RH  071%=      5-min Rain = 0
KFL1 241025Z 04005KT M00/M05 A3013 RMK A01 T10011047  RH  071%=      5-min Rain = 0
KFL1 241026Z 04005KT M00/M05 A3014 RMK A01 T10011047  RH  071%=      5-min Rain = 0
KFL1 241027Z 05004KT M00/M05 A3014 RMK A01 T10021049  RH  071%=      5-min Rain = 0
KFL1 241028Z 04005KT 00/05 A3014 RMK A01 T00-00-48  RH  070%=      5-min Rain = 0
KFL1 241029Z 05005KT 00/05 A3014 RMK A01 T00-00-50  RH  069%=      5-min Rain = 0
KFL1 241030Z 04004KT 00/M05 A3014 RMK A01 T00021048  RH  069%=      5-min Rain = 0
KFL1 241031Z 05005KT 00/M05 A3014 RMK A01 T00011049  RH  069%=      5-min Rain = 0
KFL1 241032Z 05005KT 00/M05 A3014 RMK A01 T00021049  RH  069%=      5-min Rain = 0
KFL1 241033Z 05005KT 00/M05 A3014 RMK A01 T00031049  RH  068%=      5-min Rain = 0
KFL1 241034Z 05005KT 00/M05 A3014 RMK A01 T00041049  RH  068%=      5-min Rain = 0
KFL1 241035Z 05004KT 00/M05 A3014 RMK A01 T00031050  RH  068%=      5-min Rain = 0
KFL1 241036Z 05004KT 00/M05 A3014 RMK A01 T00031050  RH  067%=      5-min Rain = 0
KFL1 241037Z 05004KT 00/M05 A3014 RMK A01 T00041049  RH  067%=      5-min Rain = 0
KFL1 241038Z 06004KT 01/M05 A3014 RMK A01 T00061050  RH  066%=      5-min Rain = 0
KFL1 241039Z 06003KT 01/M05 A3014 RMK A01 T00061051  RH  066%=      5-min Rain = 0
KFL1 241040Z 05002KT 01/M05 A3014 RMK A01 T00061052  RH  065%=      5-min Rain = 0
KFL1 241041Z 06002KT 01/M05 A3014 RMK A01 T00061052  RH  065%=      5-min Rain = 0
KFL1 241042Z 06003KT 01/M05 A3014 RMK A01 T00071052  RH  065%=      5-min Rain = 0
KFL1 241043Z 06003KT 01/M05 A3014 RMK A01 T00081052  RH  064%=      5-min Rain = 0
KFL1 241044Z 05003KT 01/M05 A3014 RMK A01 T00081052  RH  064%=      5-min Rain = 0
KFL1 241045Z 05003KT 01/M05 A3014 RMK A01 T00091052  RH  064%=      5-min Rain = 0
KFL1 241046Z 07003KT 01/M05 A3014 RMK A01 T00091051  RH  064%=      5-min Rain = 0
KFL1 241047Z 06002KT 01/M05 A3014 RMK A01 T00101050  RH  064%=      5-min Rain = 0
KFL1 241048Z 06003KT 01/M05 A3014 RMK A01 T00111050  RH  064%=      5-min Rain = 0
KFL1 241049Z 06003KT 01/M05 A3014 RMK A01 T00101050  RH  064%=      5-min Rain = 0
KFL1 241050Z 06003KT 01/M05 A3014 RMK A01 T00101048  RH  065%=      5-min Rain = 0
KFL1 241051Z 07002KT 01/M05 A3014 RMK A01 T00091049  RH  065%=      5-min Rain = 0
KFL1 241052Z 09002KT 01/M05 A3014 RMK A01 T00091051  RH  064%=      5-min Rain = 0
KFL1 241053Z 09002KT 01/M05 A3014 RMK A01 T00091052  RH  064%=      5-min Rain = 0
KFL1 241054Z 10001KT 01/M05 A3014 RMK A01 T00101052  RH  064%=      5-min Rain = 0
KFL1 241055Z 08002KT 01/M05 A3014 RMK A01 T00111051  RH  063%=      5-min Rain = 0
KFL1 241056Z 07002KT 01/M05 A3014 RMK A01 T00111051  RH  063%=      5-min Rain = 0
KFL1 241057Z 08003KT 01/M05 A3014 RMK A01 T00121051  RH  063%=      5-min Rain = 0
KFL1 241058Z 08003KT 01/M05 A3014 RMK A01 T00121050  RH  063%=      5-min Rain = 0
KFL1 241059Z 06003KT 01/M05 A3014 RMK A01 T00131048  RH  064%=      5-min Rain = 0
KFL1 241100Z 05003KT 01/M05 A3014 RMK A01 T00121048  RH  064%=      5-min Rain = 0
KFL1 241101Z 04004KT 01/M05 A3014 RMK A01 T00101049  RH  065%=      5-min Rain = 0
KFL1 241102Z 04003KT 01/M05 A3014 RMK A01 T00111049  RH  064%=      5-min Rain = 0
KFL1 241103Z 04003KT 01/M05 A3014 RMK A01 T00101050  RH  064%=      5-min Rain = 0
KFL1 241104Z 04004KT 01/M05 A3014 RMK A01 T00111050  RH  064%=      5-min Rain = 0
KFL1 241105Z 04004KT 01/M05 A3014 RMK A01 T00131049  RH  064%=      5-min Rain = 0
KFL1 241106Z 04003KT 01/M05 A3014 RMK A01 T00121049  RH  064%=      5-min Rain = 0
KFL1 241107Z 04003KT 01/M05 A3014 RMK A01 T00131048  RH  064%=      5-min Rain = 0
KFL1 241108Z 04004KT 01/M05 A3014 RMK A01 T00141047  RH  063%=      5-min Rain = 0
KFL1 241109Z 04004KT 01/M05 A3014 RMK A01 T00141048  RH  063%=      5-min Rain = 0
KFL1 241110Z 04004KT 01/M05 A3014 RMK A01 T00131049  RH  064%=      5-min Rain = 0
KFL1 241111Z 05004KT 01/M05 A3014 RMK A01 T00131049  RH  063%=      5-min Rain = 0
KFL1 241112Z 05003KT 01/M05 A3014 RMK A01 T00141048  RH  063%=      5-min Rain = 0
KFL1 241113Z 04003KT 01/M05 A3014 RMK A01 T00131048  RH  063%=      5-min Rain = 0
KFL1 241114Z 05004KT 01/M05 A3014 RMK A01 T00141048  RH  064%=      5-min Rain = 0
KFL1 241115Z 04004KT 01/M05 A3014 RMK A01 T00121049  RH  064%=      5-min Rain = 0
KFL1 241116Z 04004KT 01/M05 A3014 RMK A01 T00121049  RH  064%=      5-min Rain = 0
KFL1 241117Z 03004KT 01/M05 A3014 RMK A01 T00121048  RH  065%=      5-min Rain = 0
KFL1 241118Z 04005KT 01/M05 A3014 RMK A01 T00101049  RH  065%=      5-min Rain = 0
KFL1 241119Z 04006KT 01/M05 A3014 RMK A01 T00091049  RH  065%=      5-min Rain = 0
KFL1 241120Z 04006KT 01/M05 A3014 RMK A01 T00101047  RH  066%=      5-min Rain = 0
KFL1 241121Z 03006KT 01/M05 A3014 RMK A01 T00081048  RH  066%=      5-min Rain = 0
KFL1 241122Z 03006KT 01/M05 A3014 RMK A01 T00081048  RH  066%=      5-min Rain = 0
KFL1 241123Z 03006KT 01/M05 A3014 RMK A01 T00081045  RH  067%=      5-min Rain = 0
KFL1 241124Z 03006KT 01/M05 A3014 RMK A01 T00051046  RH  069%=      5-min Rain = 0
KFL1 241125Z 03006KT 00/M05 A3014 RMK A01 T00031045  RH  070%=      5-min Rain = 0
KFL1 241126Z 03006KT 00/M05 A3014 RMK A01 T00011045  RH  071%=      5-min Rain = 0
KFL1 241127Z 03006KT M00/M04 A3014 RMK A01 T10011044  RH  073%=      5-min Rain = 0
KFL1 241128Z 03006KT M00/M04 A3014 RMK A01 T10031044  RH  074%=      5-min Rain = 0
KFL1 241129Z 03006KT M00/M04 A3014 RMK A01 T10041043  RH  075%=      5-min Rain = 0
KFL1 241130Z 03006KT M01/M04 A3014 RMK A01 T10061043  RH  076%=      5-min Rain = 0
KFL1 241131Z 03006KT M01/M04 A3014 RMK A01 T10061042  RH  076%=      5-min Rain = 0
KFL1 241132Z 03007KT M01/M04 A3014 RMK A01 T10061042  RH  077%=      5-min Rain = 0
KFL1 241133Z 03006KT M01/M04 A3014 RMK A01 T10071041  RH  078%=      5-min Rain = 0
KFL1 241134Z 03006KT M01/M04 A3014 RMK A01 T10081042  RH  078%=      5-min Rain = 0
KFL1 241135Z 03006KT M01/M04 A3014 RMK A01 T10071043  RH  077%=      5-min Rain = 0
KFL1 241136Z 03006KT M01/M04 A3014 RMK A01 T10051043  RH  076%=      5-min Rain = 0
KFL1 241137Z 03006KT M00/M04 A3014 RMK A01 T10031043  RH  074%=      5-min Rain = 0
KFL1 241138Z 03005KT 00/04 A3014 RMK A01 T00000-43  RH  073%=      5-min Rain = 0
KFL1 241139Z 03005KT 00/M04 A3014 RMK A01 T00031043  RH  071%=      5-min Rain = 0
KFL1 241140Z 03004KT 01/M04 A3014 RMK A01 T00051042  RH  070%=      5-min Rain = 0
KFL1 241141Z 04003KT 01/M04 A3014 RMK A01 T00051042  RH  070%=      5-min Rain = 0
KFL1 241142Z 04003KT 01/M04 A3014 RMK A01 T00051043  RH  071%=      5-min Rain = 0
KFL1 241143Z 04003KT 00/M04 A3014 RMK A01 T00041042  RH  071%=      5-min Rain = 0
KFL1 241144Z 03003KT 00/M04 A3014 RMK A01 T00031043  RH  072%=      5-min Rain = 0
KFL1 241145Z 03003KT 00/M05 A3014 RMK A01 T00011045  RH  071%=      5-min Rain = 0
KFL1 241146Z 03003KT 00/M04 A3014 RMK A01 T00021044  RH  071%=      5-min Rain = 0
KFL1 241147Z 02004KT 00/M04 A3014 RMK A01 T00021042  RH  072%=      5-min Rain = 0
KFL1 241148Z 02004KT 00/04 A3014 RMK A01 T00000-43  RH  073%=      5-min Rain = 0
KFL1 241149Z 02005KT 00/04 A3014 RMK A01 T00000-41  RH  074%=      5-min Rain = 0
KFL1 241150Z 02006KT M00/M04 A3014 RMK A01 T10031043  RH  075%=      5-min Rain = 0
KFL1 241151Z 02005KT M00/M04 A3014 RMK A01 T10031042  RH  075%=      5-min Rain = 0
KFL1 241152Z 02004KT M00/M04 A3014 RMK A01 T10031040  RH  076%=      5-min Rain = 0
KFL1 241153Z 02004KT M00/M04 A3014 RMK A01 T10041040  RH  076%=      5-min Rain = 0
KFL1 241154Z 01005KT M00/M04 A3014 RMK A01 T10041039  RH  077%=      5-min Rain = 0
KFL1 241155Z 01005KT M00/M04 A3014 RMK A01 T10041040  RH  077%=      5-min Rain = 0
KFL1 241156Z 00004KT M00/M04 A3014 RMK A01 T10041039  RH  077%=      5-min Rain = 0
KFL1 241157Z 00004KT M01/M04 A3014 RMK A01 T10051039  RH  078%=      5-min Rain = 0
KFL1 241158Z 01004KT M01/M04 A3014 RMK A01 T10061039  RH  078%=      5-min Rain = 0
KFL1 241159Z 01004KT M01/M04 A3014 RMK A01 T10071040  RH  079%=      5-min Rain = 0
KFL1 241200Z 01003KT M01/M04 A3014 RMK A01 T10091040  RH  079%=      5-min Rain = 0
KFL1 241201Z 01003KT M01/M04 A3014 RMK A01 T10091041  RH  079%=      5-min Rain = 0
KFL1 241202Z 01003KT M01/M04 A3014 RMK A01 T10081041  RH  078%=      5-min Rain = 0
KFL1 241203Z 01003KT M01/M04 A3014 RMK A01 T10071040  RH  079%=      5-min Rain = 0
KFL1 241204Z 01003KT M01/M04 A3014 RMK A01 T10091041  RH  079%=      5-min Rain = 0
KFL1 241205Z 00003KT M01/M04 A3014 RMK A01 T10101042  RH  079%=      5-min Rain = 0
KFL1 241206Z 00003KT M01/M04 A3014 RMK A01 T10101041  RH  080%=      5-min Rain = 0
KFL1 241207Z 00003KT M01/M04 A3014 RMK A01 T10121041  RH  080%=      5-min Rain = 0
KFL1 241208Z 01003KT M01/M04 A3014 RMK A01 T10121041  RH  081%=      5-min Rain = 0
KFL1 241209Z 00003KT M01/M04 A3014 RMK A01 T10121041  RH  081%=      5-min Rain = 0
KFL1 241210Z 00003KT M01/M04 A3014 RMK A01 T10111040  RH  081%=      5-min Rain = 0
KFL1 241211Z 00003KT M01/M04 A3014 RMK A01 T10121041  RH  081%=      5-min Rain = 0
KFL1 241212Z 00003KT M02/M04 A3014 RMK A01 T10151041  RH  082%=      5-min Rain = 0
KFL1 241213Z 00003KT M02/M04 A3014 RMK A01 T10161042  RH  083%=      5-min Rain = 0
KFL1 241214Z 00003KT M02/M04 A3014 RMK A01 T10161042  RH  083%=      5-min Rain = 0
KFL1 241215Z 00003KT M01/M04 A3014 RMK A01 T10131040  RH  082%=      5-min Rain = 0
KFL1 241216Z 01003KT M01/M04 A3014 RMK A01 T10131041  RH  081%=      5-min Rain = 0
KFL1 241217Z 01003KT M01/M04 A3014 RMK A01 T10121040  RH  081%=      5-min Rain = 0
KFL1 241218Z 01003KT M01/M04 A3014 RMK A01 T10111039  RH  081%=      5-min Rain = 0
KFL1 241219Z 01003KT M01/M04 A3014 RMK A01 T10121040  RH  081%=      5-min Rain = 0
KFL1 241220Z 01003KT M01/M04 A3014 RMK A01 T10121041  RH  081%=      5-min Rain = 0
KFL1 241221Z 00003KT M01/M04 A3014 RMK A01 T10121041  RH  081%=      5-min Rain = 0
KFL1 241222Z 00003KT M01/M04 A3014 RMK A01 T10111041  RH  080%=      5-min Rain = 0
KFL1 241223Z 00003KT M01/M04 A3014 RMK A01 T10121042  RH  080%=      5-min Rain = 0
KFL1 241224Z 01003KT M02/M04 A3014 RMK A01 T10151044  RH  080%=      5-min Rain = 0
KFL1 241225Z 01004KT M02/M05 A3014 RMK A01 T10181045  RH  081%=      5-min Rain = 0
KFL1 241226Z 01004KT M02/M04 A3014 RMK A01 T10161043  RH  082%=      5-min Rain = 0
KFL1 241227Z 01005KT M01/M04 A3014 RMK A01 T10141043  RH  081%=      5-min Rain = 0
KFL1 241228Z 02005KT M01/M04 A3014 RMK A01 T10101041  RH  080%=      5-min Rain = 0
KFL1 241229Z 02005KT M01/M04 A3014 RMK A01 T10091041  RH  079%=      5-min Rain = 0
KFL1 241230Z 02004KT M01/M04 A3014 RMK A01 T10091042  RH  078%=      5-min Rain = 0
KFL1 241231Z 02004KT M01/M04 A3014 RMK A01 T10101043  RH  078%=      5-min Rain = 0
KFL1 241232Z 03004KT M01/M04 A3014 RMK A01 T10091042  RH  078%=      5-min Rain = 0
KFL1 241233Z 03004KT M01/M04 A3014 RMK A01 T10061041  RH  078%=      5-min Rain = 0
KFL1 241234Z 03004KT M01/M04 A3014 RMK A01 T10051040  RH  077%=      5-min Rain = 0
KFL1 241235Z 03004KT M00/M04 A3014 RMK A01 T10041040  RH  077%=      5-min Rain = 0
KFL1 241236Z 03004KT M00/M04 A3014 RMK A01 T10031039  RH  076%=      5-min Rain = 0
KFL1 241237Z 03004KT M00/M04 A3014 RMK A01 T10021039  RH  076%=      5-min Rain = 0
KFL1 241238Z 03004KT M00/M04 A3014 RMK A01 T10021040  RH  076%=      5-min Rain = 0
KFL1 241239Z 03004KT M00/M04 A3014 RMK A01 T10011039  RH  076%=      5-min Rain = 0
KFL1 241240Z 02004KT 00/04 A3014 RMK A01 T00000-38  RH  076%=      5-min Rain = 0
KFL1 241241Z 02004KT M00/M04 A3014 RMK A01 T10021040  RH  075%=      5-min Rain = 0
KFL1 241242Z 02005KT M00/M04 A3014 RMK A01 T10021040  RH  075%=      5-min Rain = 0
KFL1 241243Z 03005KT M00/M04 A3014 RMK A01 T10031044  RH  074%=      5-min Rain = 0
KFL1 241244Z 02006KT M01/M05 A3014 RMK A01 T10101049  RH  075%=      5-min Rain = 0
KFL1 241245Z 01006KT M01/M05 A3014 RMK A01 T10121048  RH  077%=      5-min Rain = 0
KFL1 241246Z 01006KT M02/M05 A3014 RMK A01 T10151048  RH  078%=      5-min Rain = 0
KFL1 241247Z 01006KT M02/M05 A3014 RMK A01 T10171050  RH  078%=      5-min Rain = 0
KFL1 241248Z 01006KT M02/M05 A3015 RMK A01 T10191050  RH  080%=      5-min Rain = 0
KFL1 241249Z 01005KT M02/M05 A3015 RMK A01 T10211050  RH  081%=      5-min Rain = 0
KFL1 241250Z 01005KT M02/M05 A3015 RMK A01 T10221050  RH  081%=      5-min Rain = 0
KFL1 241251Z 01005KT M02/M05 A3015 RMK A01 T10241052  RH  081%=      5-min Rain = 0
KFL1 241252Z 01005KT M02/M05 A3015 RMK A01 T10241051  RH  082%=      5-min Rain = 0
KFL1 241253Z 02004KT M02/M05 A3015 RMK A01 T10231051  RH  082%=      5-min Rain = 0
KFL1 241254Z 02005KT M03/M05 A3015 RMK A01 T10251051  RH  082%=      5-min Rain = 0
KFL1 241255Z 03005KT M02/M05 A3015 RMK A01 T10221046  RH  083%=      5-min Rain = 0
KFL1 241256Z 03005KT M02/M05 A3015 RMK A01 T10181045  RH  082%=      5-min Rain = 0
KFL1 241257Z 03004KT M02/M04 A3015 RMK A01 T10161044  RH  081%=      5-min Rain = 0
KFL1 241258Z 03004KT M01/M04 A3015 RMK A01 T10121042  RH  080%=      5-min Rain = 0
KFL1 241259Z 03004KT M01/M04 A3015 RMK A01 T10111042  RH  079%=      5-min Rain = 0
KFL1 241300Z 04004KT M01/M04 A3015 RMK A01 T10091041  RH  079%=      5-min Rain = 0
KFL1 241301Z 04004KT M01/M04 A3015 RMK A01 T10081041  RH  078%=      5-min Rain = 0
KFL1 241302Z 04005KT M01/M04 A3015 RMK A01 T10081041  RH  078%=      5-min Rain = 0
KFL1 241303Z 04005KT M01/M04 A3015 RMK A01 T10071040  RH  078%=      5-min Rain = 0
KFL1 241304Z 04005KT M01/M04 A3015 RMK A01 T10061039  RH  078%=      5-min Rain = 0
KFL1 241305Z 04005KT M01/M04 A3015 RMK A01 T10051038  RH  078%=      5-min Rain = 0
KFL1 241306Z 04006KT M00/M04 A3015 RMK A01 T10031037  RH  078%=      5-min Rain = 0
KFL1 241307Z 05006KT M00/M04 A3015 RMK A01 T10031036  RH  078%=      5-min Rain = 0
KFL1 241308Z 05006KT M00/M04 A3015 RMK A01 T10041037  RH  078%=      5-min Rain = 0
KFL1 241309Z 05006KT M00/M04 A3015 RMK A01 T10041037  RH  078%=      5-min Rain = 0
KFL1 241310Z 05006KT M00/M04 A3015 RMK A01 T10041037  RH  078%=      5-min Rain = 0
KFL1 241311Z 05006KT M00/M04 A3015 RMK A01 T10031037  RH  078%=      5-min Rain = 0
KFL1 241312Z 05006KT M00/M04 A3015 RMK A01 T10031036  RH  078%=      5-min Rain = 0
KFL1 241313Z 05006KT M00/M04 A3015 RMK A01 T10021036  RH  078%=      5-min Rain = 0
KFL1 241314Z 05006KT M00/M04 A3015 RMK A01 T10021035  RH  078%=      5-min Rain = 0
KFL1 241315Z 05005KT M00/M04 A3015 RMK A01 T10031036  RH  078%=      5-min Rain = 0
KFL1 241316Z 04005KT M00/M04 A3015 RMK A01 T10031036  RH  078%=      5-min Rain = 0
KFL1 241317Z 05006KT M00/M04 A3015 RMK A01 T10041037  RH  078%=      5-min Rain = 0
KFL1 241318Z 05006KT M00/M04 A3016 RMK A01 T10041037  RH  078%=      5-min Rain = 0
KFL1 241319Z 05005KT M00/M04 A3016 RMK A01 T10041037  RH  078%=      5-min Rain = 0
KFL1 241320Z 07004KT M00/M04 A3016 RMK A01 T10041038  RH  078%=      5-min Rain = 0
KFL1 241321Z 07005KT M01/M04 A3016 RMK A01 T10061039  RH  078%=      5-min Rain = 0
KFL1 241322Z 05005KT M01/M04 A3016 RMK A01 T10061038  RH  079%=      5-min Rain = 0
KFL1 241323Z 04005KT M01/M04 A3016 RMK A01 T10081039  RH  080%=      5-min Rain = 0
KFL1 241324Z 04006KT M01/M04 A3015 RMK A01 T10111040  RH  080%=      5-min Rain = 0
KFL1 241325Z 04006KT M01/M04 A3015 RMK A01 T10101039  RH  081%=      5-min Rain = 0
KFL1 241326Z 04006KT M01/M04 A3015 RMK A01 T10081037  RH  081%=      5-min Rain = 0
KFL1 241327Z 04006KT M01/M04 A3015 RMK A01 T10061037  RH  079%=      5-min Rain = 0
KFL1 241328Z 05005KT M00/M04 A3015 RMK A01 T10031036  RH  079%=      5-min Rain = 0
KFL1 241329Z 05005KT M00/M04 A3015 RMK A01 T10031037  RH  078%=      5-min Rain = 0
KFL1 241330Z 05006KT M00/M04 A3015 RMK A01 T10021036  RH  078%=      5-min Rain = 0
KFL1 241331Z 04005KT M00/M04 A3015 RMK A01 T10011036  RH  077%=      5-min Rain = 0
KFL1 241332Z 05005KT 00/04 A3016 RMK A01 T00-00-36  RH  077%=      5-min Rain = 0
KFL1 241333Z 04004KT 00/04 A3016 RMK A01 T00-00-37  RH  076%=      5-min Rain = 0
KFL1 241334Z 04003KT 00/M04 A3016 RMK A01 T00011036  RH  076%=      5-min Rain = 0
KFL1 241335Z 03004KT 00/M04 A3016 RMK A01 T00021036  RH  076%=      5-min Rain = 0
KFL1 241336Z 04004KT 00/M04 A3016 RMK A01 T00031035  RH  075%=      5-min Rain = 0
KFL1 241337Z 04004KT 00/M04 A3016 RMK A01 T00041035  RH  075%=      5-min Rain = 0
KFL1 241338Z 04005KT 01/M04 A3016 RMK A01 T00051036  RH  074%=      5-min Rain = 0
KFL1 241339Z 04004KT 00/M04 A3016 RMK A01 T00041037  RH  074%=      5-min Rain = 0
KFL1 241340Z 04004KT 01/M04 A3016 RMK A01 T00071035  RH  074%=      5-min Rain = 0
KFL1 241341Z 04003KT 00/M04 A3016 RMK A01 T00041038  RH  073%=      5-min Rain = 0
KFL1 241342Z 04004KT 00/M04 A3016 RMK A01 T00041039  RH  073%=      5-min Rain = 0
KFL1 241343Z 04004KT 00/M04 A3016 RMK A01 T00041039  RH  073%=      5-min Rain = 0
KFL1 241344Z 04004KT 00/M04 A3016 RMK A01 T00031039  RH  074%=      5-min Rain = 0
KFL1 241345Z 04003KT 00/M04 A3016 RMK A01 T00011040  RH  074%=      5-min Rain = 0
KFL1 241346Z 04003KT 00/04 A3016 RMK A01 T00000-39  RH  075%=      5-min Rain = 0
KFL1 241347Z 05003KT 00/04 A3016 RMK A01 T00-00-39  RH  075%=      5-min Rain = 0
KFL1 241348Z 06002KT 00/M04 A3016 RMK A01 T00021038  RH  075%=      5-min Rain = 0
KFL1 241349Z 06002KT 00/M04 A3016 RMK A01 T00021038  RH  074%=      5-min Rain = 0
KFL1 241350Z 04003KT 00/M04 A3017 RMK A01 T00041037  RH  074%=      5-min Rain = 0
KFL1 241351Z 03003KT 00/M04 A3017 RMK A01 T00011043  RH  072%=      5-min Rain = 0
KFL1 241352Z 03003KT M01/M05 A3017 RMK A01 T10091050  RH  074%=      5-min Rain = 0
KFL1 241353Z 03003KT M02/M05 A3017 RMK A01 T10151050  RH  077%=      5-min Rain = 0
KFL1 241354Z 02003KT M02/M05 A3017 RMK A01 T10171048  RH  079%=      5-min Rain = 0
KFL1 241355Z 02003KT M02/M05 A3017 RMK A01 T10181047  RH  081%=      5-min Rain = 0
KFL1 241356Z 02003KT M02/M05 A3017 RMK A01 T10181046  RH  081%=      5-min Rain = 0
KFL1 241357Z 02003KT M02/M05 A3017 RMK A01 T10171045  RH  081%=      5-min Rain = 0
KFL1 241358Z 02003KT M02/M04 A3017 RMK A01 T10151043  RH  081%=      5-min Rain = 0
KFL1 241359Z 03002KT M01/M04 A3017 RMK A01 T10101038  RH  081%=      5-min Rain = 0
KFL1 241400Z 03002KT M01/M04 A3017 RMK A01 T10091039  RH  080%=      5-min Rain = 0
KFL1 241401Z 04002KT M01/M04 A3017 RMK A01 T10071039  RH  079%=      5-min Rain = 0
KFL1 241402Z 06002KT M01/M04 A3017 RMK A01 T10081039  RH  079%=      5-min Rain = 0
KFL1 241403Z 08001KT M01/M04 A3017 RMK A01 T10091040  RH  080%=      5-min Rain = 0
KFL1 241404Z 06002KT M01/M04 A3017 RMK A01 T10061036  RH  080%=      5-min Rain = 0
KFL1 241405Z 05003KT M00/M03 A3017 RMK A01 T10011033  RH  079%=      5-min Rain = 0
KFL1 241406Z 05004KT 00/M03 A3017 RMK A01 T00021033  RH  077%=      5-min Rain = 0
KFL1 241407Z 05004KT 00/M03 A3017 RMK A01 T00031034  RH  076%=      5-min Rain = 0
KFL1 241408Z 05004KT 00/M03 A3017 RMK A01 T00041034  RH  075%=      5-min Rain = 0
KFL1 241409Z 04005KT 01/M04 A3017 RMK A01 T00051035  RH  075%=      5-min Rain = 0
KFL1 241410Z 04005KT 01/M04 A3017 RMK A01 T00051036  RH  074%=      5-min Rain = 0
KFL1 241411Z 03005KT 00/M04 A3017 RMK A01 T00041037  RH  074%=      5-min Rain = 0
KFL1 241412Z 04006KT 01/M04 A3017 RMK A01 T00051036  RH  074%=      5-min Rain = 0
KFL1 241413Z 04006KT 00/M04 A3017 RMK A01 T00031038  RH  074%=      5-min Rain = 0
KFL1 241414Z 03006KT 00/M04 A3017 RMK A01 T00031037  RH  074%=      5-min Rain = 0
KFL1 241415Z 03005KT 00/M04 A3017 RMK A01 T00031038  RH  074%=      5-min Rain = 0
KFL1 241416Z 04005KT 01/M04 A3017 RMK A01 T00051036  RH  074%=      5-min Rain = 0
KFL1 241417Z 04005KT 01/M04 A3017 RMK A01 T00071035  RH  073%=      5-min Rain = 0
KFL1 241418Z 04004KT 01/M03 A3017 RMK A01 T00091034  RH  073%=      5-min Rain = 0
KFL1 241419Z 04004KT 01/M04 A3017 RMK A01 T00091036  RH  072%=      5-min Rain = 0
KFL1 241420Z 04004KT 01/M04 A3017 RMK A01 T00111035  RH  071%=      5-min Rain = 0
KFL1 241421Z 04003KT 01/M04 A3017 RMK A01 T00131035  RH  070%=      5-min Rain = 0
KFL1 241422Z 04003KT 02/M04 A3018 RMK A01 T00161035  RH  069%=      5-min Rain = 0
KFL1 241423Z 05003KT 02/M04 A3018 RMK A01 T00161036  RH  069%=      5-min Rain = 0
KFL1 241424Z 05004KT 01/M04 A3018 RMK A01 T00141036  RH  069%=      5-min Rain = 0
KFL1 241425Z 05003KT 02/M03 A3018 RMK A01 T00151033  RH  070%=      5-min Rain = 0
KFL1 241426Z 05003KT 02/M03 A3018 RMK A01 T00161032  RH  070%=      5-min Rain = 0
KFL1 241427Z 04003KT 02/M03 A3018 RMK A01 T00161033  RH  070%=      5-min Rain = 0
KFL1 241428Z 04003KT 02/M03 A3018 RMK A01 T00171034  RH  069%=      5-min Rain = 0
KFL1 241429Z 05003KT 02/M03 A3018 RMK A01 T00191033  RH  068%=      5-min Rain = 0
KFL1 241430Z 05003KT 02/M03 A3018 RMK A01 T00201034  RH  068%=      5-min Rain = 0
KFL1 241431Z 05003KT 02/M03 A3018 RMK A01 T00211033  RH  068%=      5-min Rain = 0
KFL1 241432Z 05003KT 02/M03 A3018 RMK A01 T00221032  RH  067%=      5-min Rain = 0
KFL1 241433Z 05003KT 02/M03 A3018 RMK A01 T00201034  RH  067%=      5-min Rain = 0
KFL1 241434Z 05003KT 02/M03 A3018 RMK A01 T00221034  RH  067%=      5-min Rain = 0
KFL1 241435Z 05002KT 02/M04 A3018 RMK A01 T00211035  RH  067%=      5-min Rain = 0
KFL1 241436Z 05004KT 02/M04 A3018 RMK A01 T00201035  RH  067%=      5-min Rain = 0
KFL1 241437Z 04004KT 02/M04 A3018 RMK A01 T00191035  RH  067%=      5-min Rain = 0
KFL1 241438Z 05005KT 02/M03 A3018 RMK A01 T00191034  RH  068%=      5-min Rain = 0
KFL1 241439Z 04005KT 02/M04 A3018 RMK A01 T00171036  RH  068%=      5-min Rain = 0
KFL1 241440Z 04004KT 02/M04 A3018 RMK A01 T00161037  RH  068%=      5-min Rain = 0
KFL1 241441Z 04004KT 02/M04 A3018 RMK A01 T00171036  RH  068%=      5-min Rain = 0
KFL1 241442Z 04004KT 02/M04 A3018 RMK A01 T00181036  RH  067%=      5-min Rain = 0
KFL1 241443Z 04004KT 02/M04 A3019 RMK A01 T00201036  RH  066%=      5-min Rain = 0
KFL1 241444Z 04003KT 02/M04 A3019 RMK A01 T00231036  RH  065%=      5-min Rain = 0
KFL1 241445Z 04003KT 02/M04 A3019 RMK A01 T00241036  RH  064%=      5-min Rain = 0
KFL1 241446Z 05002KT 03/M04 A3019 RMK A01 T00271035  RH  064%=      5-min Rain = 0
KFL1 241447Z 05003KT 03/M03 A3019 RMK A01 T00291034  RH  063%=      5-min Rain = 0
KFL1 241448Z 06002KT 03/M03 A3019 RMK A01 T00321033  RH  062%=      5-min Rain = 0
KFL1 241449Z 05002KT 04/M03 A3019 RMK A01 T00361032  RH  061%=      5-min Rain = 0
KFL1 241450Z 06002KT 04/M03 A3019 RMK A01 T00381033  RH  060%=      5-min Rain = 0
KFL1 241451Z 06002KT 04/M03 A3019 RMK A01 T00411032  RH  059%=      5-min Rain = 0
KFL1 241452Z 06003KT 04/M03 A3019 RMK A01 T00421032  RH  059%=      5-min Rain = 0
KFL1 241453Z 06003KT 04/M03 A3019 RMK A01 T00421033  RH  058%=      5-min Rain = 0
KFL1 241454Z 07004KT 04/M03 A3019 RMK A01 T00431034  RH  057%=      5-min Rain = 0
KFL1 241455Z 07003KT 04/M03 A3019 RMK A01 T00431034  RH  057%=      5-min Rain = 0
KFL1 241456Z 07003KT 04/M04 A3019 RMK A01 T00431035  RH  057%=      5-min Rain = 0
KFL1 241457Z 07003KT 04/M04 A3019 RMK A01 T00441035  RH  057%=      5-min Rain = 0
KFL1 241458Z 07003KT 04/M04 A3019 RMK A01 T00441035  RH  056%=      5-min Rain = 0
KFL1 241459Z 07002KT 04/M04 A3019 RMK A01 T00441035  RH  056%=      5-min Rain = 0
KFL1 241500Z 06002KT 04/M04 A3019 RMK A01 T00441036  RH  056%=      5-min Rain = 0
KFL1 241501Z 07001KT 05/M04 A3019 RMK A01 T00451036  RH  056%=      5-min Rain = 0
KFL1 241502Z 06002KT 04/M04 A3019 RMK A01 T00441036  RH  056%=      5-min Rain = 0
KFL1 241503Z 06001KT 04/M04 A3019 RMK A01 T00441036  RH  056%=      5-min Rain = 0
KFL1 241504Z 09001KT 05/M04 A3019 RMK A01 T00461037  RH  055%=      5-min Rain = 0
KFL1 241505Z 13000KT 05/M04 A3019 RMK A01 T00481036  RH  054%=      5-min Rain = 0
KFL1 241506Z 11000KT 05/M04 A3019 RMK A01 T00501036  RH  054%=      5-min Rain = 0
KFL1 241507Z 30000KT 05/M03 A3019 RMK A01 T00511034  RH  054%=      5-min Rain = 0
KFL1 241508Z 29001KT 05/M04 A3019 RMK A01 T00501035  RH  054%=      5-min Rain = 0
KFL1 241509Z 27002KT 05/M03 A3019 RMK A01 T00491033  RH  055%=      5-min Rain = 0
KFL1 241510Z 23002KT 05/M04 A3019 RMK A01 T00461035  RH  056%=      5-min Rain = 0
KFL1 241511Z 23002KT 05/M04 A3019 RMK A01 T00451037  RH  055%=      5-min Rain = 0
KFL1 241512Z 24003KT 04/M04 A3019 RMK A01 T00421039  RH  055%=      5-min Rain = 0
KFL1 241513Z 24003KT 04/M04 A3019 RMK A01 T00411040  RH  056%=      5-min Rain = 0
KFL1 241514Z 24003KT 04/M04 A3019 RMK A01 T00431037  RH  056%=      5-min Rain = 0
KFL1 241515Z 23002KT 04/M04 A3019 RMK A01 T00411038  RH  056%=      5-min Rain = 0
KFL1 241516Z 20001KT 04/M04 A3019 RMK A01 T00431036  RH  056%=      5-min Rain = 0
KFL1 241517Z 19001KT 04/M04 A3019 RMK A01 T00441038  RH  055%=      5-min Rain = 0
KFL1 241518Z 16001KT 05/M04 A3019 RMK A01 T00481035  RH  055%=      5-min Rain = 0
KFL1 241519Z 16003KT 05/M03 A3019 RMK A01 T00521034  RH  054%=      5-min Rain = 0
KFL1 241520Z 16002KT 05/M04 A3019 RMK A01 T00521038  RH  052%=      5-min Rain = 0
KFL1 241521Z 17003KT 05/M04 A3019 RMK A01 T00531037  RH  052%=      5-min Rain = 0
KFL1 241522Z 19003KT 05/M04 A3019 RMK A01 T00541035  RH  052%=      5-min Rain = 0
KFL1 241523Z 19002KT 05/M04 A3019 RMK A01 T00541036  RH  052%=      5-min Rain = 0
KFL1 241524Z 20002KT 06/M03 A3019 RMK A01 T00561034  RH  052%=      5-min Rain = 0
KFL1 241525Z 22003KT 05/M04 A3019 RMK A01 T00541036  RH  052%=      5-min Rain = 0
KFL1 241526Z 22002KT 05/M04 A3019 RMK A01 T00511036  RH  053%=      5-min Rain = 0
KFL1 241527Z 24003KT 05/M04 A3019 RMK A01 T00491038  RH  053%=      5-min Rain = 0
KFL1 241528Z 22004KT 05/M04 A3019 RMK A01 T00481036  RH  054%=      5-min Rain = 0
KFL1 241529Z 22003KT 05/M04 A3019 RMK A01 T00451037  RH  055%=      5-min Rain = 0
KFL1 241530Z 23004KT 05/M04 A3019 RMK A01 T00461037  RH  055%=      5-min Rain = 0
KFL1 241531Z 22003KT 05/M04 A3019 RMK A01 T00451036  RH  056%=      5-min Rain = 0
KFL1 241532Z 22004KT 05/M04 A3019 RMK A01 T00451036  RH  056%=      5-min Rain = 0
KFL1 241533Z 22004KT 05/M03 A302 RMK A01 T00451034  RH  057%=      5-min Rain = 0
KFL1 241534Z 21004KT 04/M03 A302 RMK A01 T00421033  RH  058%=      5-min Rain = 0
KFL1 241535Z 22005KT 04/M03 A302 RMK A01 T00431033  RH  058%=      5-min Rain = 0
KFL1 241536Z 22006KT 04/M03 A302 RMK A01 T00441033  RH  057%=      5-min Rain = 0
KFL1 241537Z 22004KT 04/M03 A302 RMK A01 T00441034  RH  057%=      5-min Rain = 0
KFL1 241538Z 23005KT 05/M04 A302 RMK A01 T00451035  RH  056%=      5-min Rain = 0
KFL1 241539Z 23006KT 05/M04 A302 RMK A01 T00451035  RH  056%=      5-min Rain = 0
KFL1 241540Z 23008KT 04/M03 A302 RMK A01 T00431034  RH  058%=      5-min Rain = 0
KFL1 241541Z 22006KT 04/M03 A302 RMK A01 T00431033  RH  058%=      5-min Rain = 0
KFL1 241542Z 22006KT 04/M03 A302 RMK A01 T00421032  RH  058%=      5-min Rain = 0
KFL1 241543Z 23006KT 04/M03 A302 RMK A01 T00421033  RH  058%=      5-min Rain = 0
KFL1 241544Z 23006KT 04/M04 A302 RMK A01 T00421035  RH  058%=      5-min Rain = 0
KFL1 241545Z 24004KT 04/M03 A302 RMK A01 T00431032  RH  058%=      5-min Rain = 0
KFL1 241546Z 23004KT 04/M04 A302 RMK A01 T00431035  RH  057%=      5-min Rain = 0
KFL1 241547Z 22003KT 04/M03 A302 RMK A01 T00441034  RH  057%=      5-min Rain = 0
KFL1 241548Z 20005KT 04/M03 A302 RMK A01 T00441033  RH  057%=      5-min Rain = 0
KFL1 241549Z 21007KT 05/M03 A302 RMK A01 T00481030  RH  057%=      5-min Rain = 0
KFL1 241550Z 20005KT 05/M03 A302 RMK A01 T00501032  RH  055%=      5-min Rain = 0
KFL1 241551Z 22005KT 05/M03 A302 RMK A01 T00491034  RH  055%=      5-min Rain = 0
KFL1 241552Z 23005KT 05/M03 A302 RMK A01 T00511033  RH  054%=      5-min Rain = 0
KFL1 241553Z 22004KT 05/M04 A302 RMK A01 T00501035  RH  054%=      5-min Rain = 0
KFL1 241554Z 22004KT 05/M03 A302 RMK A01 T00481034  RH  055%=      5-min Rain = 0
KFL1 241555Z 22005KT 05/M03 A302 RMK A01 T00491032  RH  056%=      5-min Rain = 0
KFL1 241556Z 22004KT 05/M03 A302 RMK A01 T00491031  RH  057%=      5-min Rain = 0
KFL1 241557Z 22004KT 05/M03 A302 RMK A01 T00491029  RH  057%=      5-min Rain = 0
KFL1 241558Z 22004KT 05/M03 A302 RMK A01 T00491030  RH  057%=      5-min Rain = 0
KFL1 241559Z 22003KT 05/M03 A302 RMK A01 T00501033  RH  055%=      5-min Rain = 0
KFL1 241600Z 22003KT 05/M03 A302 RMK A01 T00531030  RH  055%=      5-min Rain = 0
KFL1 241601Z 22004KT 05/M03 A302 RMK A01 T00531030  RH  055%=      5-min Rain = 0
KFL1 241602Z 23002KT 05/M03 A302 RMK A01 T00521029  RH  056%=      5-min Rain = 0
KFL1 241603Z 23004KT 05/M03 A302 RMK A01 T00521030  RH  056%=      5-min Rain = 0
KFL1 241604Z 23004KT 05/M03 A302 RMK A01 T00491029  RH  057%=      5-min Rain = 0
KFL1 241605Z 24006KT 05/M03 A302 RMK A01 T00461030  RH  058%=      5-min Rain = 0
KFL1 241606Z 23007KT 05/M03 A302 RMK A01 T00451028  RH  059%=      5-min Rain = 0
KFL1 241607Z 22005KT 04/M03 A302 RMK A01 T00431027  RH  060%=      5-min Rain = 0
KFL1 241608Z 22005KT 04/M03 A302 RMK A01 T00431027  RH  060%=      5-min Rain = 0
KFL1 241609Z 22004KT 04/M03 A302 RMK A01 T00441027  RH  060%=      5-min Rain = 0
KFL1 241610Z 22003KT 05/M03 A302 RMK A01 T00481029  RH  058%=      5-min Rain = 0
KFL1 241611Z 22004KT 05/M03 A302 RMK A01 T00511025  RH  058%=      5-min Rain = 0
KFL1 241612Z 22005KT 05/M02 A302 RMK A01 T00511024  RH  058%=      5-min Rain = 0
KFL1 241613Z 22004KT 05/M03 A302 RMK A01 T00511025  RH  058%=      5-min Rain = 0
KFL1 241614Z 21005KT 05/M03 A302 RMK A01 T00481028  RH  058%=      5-min Rain = 0
KFL1 241615Z 19004KT 05/M03 A302 RMK A01 T00471029  RH  058%=      5-min Rain = 0
KFL1 241616Z 21003KT 05/M03 A302 RMK A01 T00461027  RH  059%=      5-min Rain = 0
KFL1 241617Z 22004KT 05/M03 A302 RMK A01 T00471025  RH  059%=      5-min Rain = 0
KFL1 241618Z 24004KT 05/M03 A302 RMK A01 T00471028  RH  058%=      5-min Rain = 0
KFL1 241619Z 25005KT 05/M03 A302 RMK A01 T00481030  RH  057%=      5-min Rain = 0
KFL1 241620Z 23006KT 05/M03 A302 RMK A01 T00501029  RH  056%=      5-min Rain = 0
KFL1 241621Z 24007KT 05/M03 A302 RMK A01 T00501027  RH  057%=      5-min Rain = 0
KFL1 241622Z 24007KT 05/M03 A302 RMK A01 T00501026  RH  058%=      5-min Rain = 0
KFL1 241623Z 25008KT 05/M03 A302 RMK A01 T00461029  RH  059%=      5-min Rain = 0
KFL1 241624Z 25007KT 04/M03 A302 RMK A01 T00431029  RH  059%=      5-min Rain = 0
KFL1 241625Z 23007KT 04/M02 A302 RMK A01 T00431024  RH  062%=      5-min Rain = 0
KFL1 241626Z 24007KT 04/M02 A3021 RMK A01 T00411024  RH  063%=      5-min Rain = 0
KFL1 241627Z 24005KT 04/M03 A3021 RMK A01 T00401025  RH  062%=      5-min Rain = 0
KFL1 241628Z 24005KT 04/M03 A3021 RMK A01 T00391026  RH  062%=      5-min Rain = 0
KFL1 241629Z 24006KT 04/M03 A3021 RMK A01 T00391026  RH  062%=      5-min Rain = 0
KFL1 241630Z 24007KT 04/M03 A3021 RMK A01 T00401025  RH  063%=      5-min Rain = 0
KFL1 241631Z 26008KT 04/M02 A3021 RMK A01 T00391023  RH  064%=      5-min Rain = 0
KFL1 241632Z 25006KT 04/M02 A3021 RMK A01 T00391024  RH  064%=      5-min Rain = 0
KFL1 241633Z 22006KT 04/M03 A3021 RMK A01 T00381025  RH  063%=      5-min Rain = 0
KFL1 241634Z 21007KT 04/M02 A3021 RMK A01 T00381024  RH  063%=      5-min Rain = 0
KFL1 241635Z 22007KT 04/M03 A3021 RMK A01 T00401025  RH  063%=      5-min Rain = 0
KFL1 241636Z 22008KT 04/M03 A3021 RMK A01 T00391025  RH  063%=      5-min Rain = 0
KFL1 241637Z 21007KT 04/M03 A3021 RMK A01 T00371026  RH  063%=      5-min Rain = 0
KFL1 241638Z 21006KT 04/M03 A3021 RMK A01 T00391025  RH  063%=      5-min Rain = 0
KFL1 241639Z 22007KT 04/M02 A3021 RMK A01 T00411024  RH  063%=      5-min Rain = 0
KFL1 241640Z 22005KT 04/M02 A3021 RMK A01 T00441022  RH  062%=      5-min Rain = 0
KFL1 241641Z 21006KT 05/M02 A3021 RMK A01 T00471024  RH  060%=      5-min Rain = 0
KFL1 241642Z 22007KT 05/M02 A3021 RMK A01 T00491023  RH  059%=      5-min Rain = 0
KFL1 241643Z 22008KT 05/M02 A3021 RMK A01 T00521022  RH  059%=      5-min Rain = 0
KFL1 241644Z 22007KT 05/M03 A3021 RMK A01 T00511026  RH  057%=      5-min Rain = 0
KFL1 241645Z 21007KT 05/M02 A3021 RMK A01 T00511022  RH  059%=      5-min Rain = 0
KFL1 241646Z 22007KT 05/M02 A3021 RMK A01 T00511021  RH  059%=      5-min Rain = 0
KFL1 241647Z 21007KT 05/M02 A3021 RMK A01 T00511023  RH  058%=      5-min Rain = 0
KFL1 241648Z 21007KT 05/M02 A3021 RMK A01 T00501023  RH  059%=      5-min Rain = 0
KFL1 241649Z 21007KT 05/M03 A3021 RMK A01 T00511026  RH  058%=      5-min Rain = 0
KFL1 241650Z 22007KT 05/M03 A3021 RMK A01 T00521025  RH  058%=      5-min Rain = 0
KFL1 241651Z 22007KT 06/M02 A3021 RMK A01 T00571020  RH  058%=      5-min Rain = 0
KFL1 241652Z 21008KT 06/M02 A3021 RMK A01 T00581021  RH  057%=      5-min Rain = 0
KFL1 241653Z 21008KT 06/M02 A3021 RMK A01 T00611023  RH  055%=      5-min Rain = 0
KFL1 241654Z 22008KT 06/M03 A3021 RMK A01 T00621026  RH  053%=      5-min Rain = 0
KFL1 241655Z 22005KT 06/M03 A3021 RMK A01 T00621026  RH  053%=      5-min Rain = 0
KFL1 241656Z 21004KT 06/M02 A3021 RMK A01 T00631023  RH  054%=      5-min Rain = 0
KFL1 241657Z 22005KT 06/M03 A3021 RMK A01 T00621025  RH  054%=      5-min Rain = 0
KFL1 241658Z 23007KT 06/M02 A3021 RMK A01 T00631024  RH  054%=      5-min Rain = 0
KFL1 241659Z 23007KT 06/M02 A3021 RMK A01 T00631023  RH  054%=      5-min Rain = 0
KFL1 241700Z 23008KT 06/M02 A3021 RMK A01 T00631021  RH  055%=      5-min Rain = 0
KFL1 241701Z 25010KT 06/M02 A3021 RMK A01 T00621021  RH  055%=      5-min Rain = 0
KFL1 241702Z 25008KT 06/M02 A3021 RMK A01 T00601022  RH  056%=      5-min Rain = 0
KFL1 241703Z 23008KT 06/M02 A3021 RMK A01 T00581021  RH  057%=      5-min Rain = 0
KFL1 241704Z 23008KT 06/M02 A3021 RMK A01 T00591019  RH  057%=      5-min Rain = 0
KFL1 241705Z 24009KT 06/M02 A3021 RMK A01 T00581017  RH  059%=      5-min Rain = 0
KFL1 241706Z 24005KT 06/M02 A3021 RMK A01 T00551021  RH  058%=      5-min Rain = 0
KFL1 241707Z 24007KT 06/M02 A3021 RMK A01 T00561020  RH  058%=      5-min Rain = 0
KFL1 241708Z 23008KT 06/M02 A3021 RMK A01 T00571017  RH  059%=      5-min Rain = 0
KFL1 241709Z 24010KT 06/M02 A3021 RMK A01 T00561019  RH  059%=      5-min Rain = 0
KFL1 241710Z 23011KT 06/M02 A3021 RMK A01 T00551019  RH  059%=      5-min Rain = 0
KFL1 241711Z 25009KT 05/M02 A3021 RMK A01 T00531021  RH  059%=      5-min Rain = 0
KFL1 241712Z 23007KT 05/M02 A3021 RMK A01 T00541019  RH  059%=      5-min Rain = 0
KFL1 241713Z 23009G15KT 05/M02 A3021 RMK A01 T00541017  RH  060%=      5-min Rain = 0
KFL1 241714Z 25011KT 05/M02 A3021 RMK A01 T00531018  RH  060%=      5-min Rain = 0
KFL1 241715Z 24011KT 05/M02 A3022 RMK A01 T00531020  RH  059%=      5-min Rain = 0
KFL1 241716Z 25008KT 05/M02 A3022 RMK A01 T00541020  RH  059%=      5-min Rain = 0
KFL1 241717Z 24008KT 05/M02 A3022 RMK A01 T00541020  RH  059%=      5-min Rain = 0
KFL1 241718Z 26008KT 05/M02 A3022 RMK A01 T00541020  RH  059%=      5-min Rain = 0
KFL1 241719Z 24008KT 05/M02 A3022 RMK A01 T00541020  RH  058%=      5-min Rain = 0
KFL1 241720Z 23008KT 05/M02 A3022 RMK A01 T00541016  RH  060%=      5-min Rain = 0
KFL1 241721Z 23008KT 06/M02 A3022 RMK A01 T00551017  RH  060%=      5-min Rain = 0
KFL1 241722Z 22009KT 06/M01 A3022 RMK A01 T00561014  RH  061%=      5-min Rain = 0
KFL1 241723Z 22009KT 05/M02 A3022 RMK A01 T00531017  RH  060%=      5-min Rain = 0
KFL1 241724Z 23008KT 05/M02 A3022 RMK A01 T00531018  RH  060%=      5-min Rain = 0
KFL1 241725Z 24007KT 06/M02 A3022 RMK A01 T00551019  RH  059%=      5-min Rain = 0
KFL1 241726Z 24008G13KT 06/M02 A3022 RMK A01 T00571017  RH  059%=      5-min Rain = 0
KFL1 241727Z 23011KT 06/M02 A3021 RMK A01 T00571015  RH  060%=      5-min Rain = 0
KFL1 241728Z 24010KT 06/M02 A3021 RMK A01 T00561019  RH  058%=      5-min Rain = 0
KFL1 241729Z 23012KT 06/M02 A3021 RMK A01 T00551022  RH  058%=      5-min Rain = 0
KFL1 241730Z 24008KT 06/M02 A3021 RMK A01 T00551019  RH  059%=      5-min Rain = 0
KFL1 241731Z 24009KT 06/M02 A3021 RMK A01 T00551019  RH  059%=      5-min Rain = 0
KFL1 241732Z 24011KT 05/M02 A3021 RMK A01 T00541021  RH  059%=      5-min Rain = 0
KFL1 241733Z 23010KT 05/M02 A3021 RMK A01 T00541020  RH  059%=      5-min Rain = 0
KFL1 241734Z 22009KT 06/M02 A3021 RMK A01 T00561020  RH  058%=      5-min Rain = 0
KFL1 241735Z 23008KT 06/M02 A3021 RMK A01 T00551022  RH  058%=      5-min Rain = 0
KFL1 241736Z 24009KT 06/M02 A3021 RMK A01 T00571020  RH  058%=      5-min Rain = 0
KFL1 241737Z 25010KT 06/M02 A3021 RMK A01 T00561021  RH  058%=      5-min Rain = 0
KFL1 241738Z 24009KT 06/M02 A3021 RMK A01 T00561022  RH  057%=      5-min Rain = 0
KFL1 241739Z 23010KT 06/M02 A3021 RMK A01 T00561023  RH  056%=      5-min Rain = 0
KFL1 241740Z 24011KT 06/M02 A3021 RMK A01 T00591023  RH  056%=      5-min Rain = 0
KFL1 241741Z 24013KT 06/M03 A3021 RMK A01 T00591026  RH  054%=      5-min Rain = 0
KFL1 241742Z 24012KT 06/M03 A3021 RMK A01 T00581026  RH  055%=      5-min Rain = 0
KFL1 241743Z 24010KT 06/M02 A3021 RMK A01 T00581022  RH  056%=      5-min Rain = 0
KFL1 241744Z 25011G16KT 06/M02 A3021 RMK A01 T00581024  RH  056%=      5-min Rain = 0
KFL1 241745Z 25013KT 06/M03 A3021 RMK A01 T00581027  RH  054%=      5-min Rain = 0
KFL1 241746Z 25012KT 06/M03 A3021 RMK A01 T00601029  RH  053%=      5-min Rain = 0
KFL1 241747Z 24010KT 06/M03 A3021 RMK A01 T00591032  RH  052%=      5-min Rain = 0
KFL1 241748Z 25013G18KT 06/M03 A3021 RMK A01 T00601028  RH  053%=      5-min Rain = 0
KFL1 241749Z 23014KT 06/M03 A3021 RMK A01 T00611028  RH  053%=      5-min Rain = 0
KFL1 241750Z 23011KT 06/M03 A3021 RMK A01 T00611027  RH  053%=      5-min Rain = 0
KFL1 241751Z 24011KT 06/M03 A3021 RMK A01 T00621027  RH  053%=      5-min Rain = 0
KFL1 241752Z 24011KT 06/M03 A3021 RMK A01 T00621029  RH  052%=      5-min Rain = 0
KFL1 241753Z 24011KT 06/M03 A3021 RMK A01 T00601026  RH  054%=      5-min Rain = 0
KFL1 241754Z 24011KT 06/M03 A3021 RMK A01 T00601028  RH  053%=      5-min Rain = 0
KFL1 241755Z 24012KT 06/M03 A3021 RMK A01 T00621026  RH  053%=      5-min Rain = 0
KFL1 241756Z 24012KT 06/M03 A3021 RMK A01 T00631029  RH  052%=      5-min Rain = 0
KFL1 241757Z 23010KT 06/M03 A3021 RMK A01 T00601028  RH  053%=      5-min Rain = 0
KFL1 241758Z 26009KT 06/M03 A3021 RMK A01 T00571031  RH  053%=      5-min Rain = 0
KFL1 241759Z 26010KT 06/M03 A3021 RMK A01 T00551030  RH  055%=      5-min Rain = 0
KFL1 241800Z 30011KT 05/M03 A3021 RMK A01 T00521025  RH  057%=      5-min Rain = 0
KFL1 241801Z 30008G14KT 05/M02 A3021 RMK A01 T00491024  RH  059%=      5-min Rain = 0
KFL1 241802Z 30015KT 05/M02 A3021 RMK A01 T00481021  RH  061%=      5-min Rain = 0
KFL1 241803Z 30015KT 04/M02 A3021 RMK A01 T00431021  RH  063%=      5-min Rain = 0
KFL1 241804Z 31013KT 04/M02 A3022 RMK A01 T00421020  RH  064%=      5-min Rain = 0
KFL1 241805Z 30011KT 04/M02 A3022 RMK A01 T00401019  RH  065%=      5-min Rain = 0
KFL1 241806Z 31011KT 04/M02 A3022 RMK A01 T00391019  RH  066%=      5-min Rain = 0
KFL1 241807Z 30012KT 04/M02 A3022 RMK A01 T00391019  RH  066%=      5-min Rain = 0
KFL1 241808Z 30011KT 04/M02 A3022 RMK A01 T00381021  RH  065%=      5-min Rain = 0
KFL1 241809Z 29009KT 04/M02 A3022 RMK A01 T00391020  RH  066%=      5-min Rain = 0
KFL1 241810Z 31010KT 04/M02 A3022 RMK A01 T00391020  RH  065%=      5-min Rain = 0
KFL1 241811Z 30011KT 04/M02 A3022 RMK A01 T00401021  RH  064%=      5-min Rain = 0
KFL1 241812Z 31013KT 04/M02 A3022 RMK A01 T00431023  RH  062%=      5-min Rain = 0
KFL1 241813Z 31016KT 05/M02 A3022 RMK A01 T00461021  RH  062%=      5-min Rain = 0
KFL1 241814Z 31013KT 04/M02 A3022 RMK A01 T00431022  RH  062%=      5-min Rain = 0
KFL1 241815Z 30012KT 04/M02 A3022 RMK A01 T00421022  RH  063%=      5-min Rain = 0
KFL1 241816Z 31012G18KT 04/M02 A3022 RMK A01 T00421024  RH  063%=      5-min Rain = 0
KFL1 241817Z 30014KT 04/M02 A3021 RMK A01 T00411024  RH  062%=      5-min Rain = 0
KFL1 241818Z 31014KT 04/M03 A3021 RMK A01 T00421027  RH  061%=      5-min Rain = 0
KFL1 241819Z 30013KT 04/M03 A3021 RMK A01 T00421027  RH  061%=      5-min Rain = 0
KFL1 241820Z 30012KT 04/M03 A3021 RMK A01 T00441026  RH  060%=      5-min Rain = 0
KFL1 241821Z 31014KT 05/M03 A3021 RMK A01 T00451027  RH  060%=      5-min Rain = 0
KFL1 241822Z 31013G18KT 05/M03 A3021 RMK A01 T00451027  RH  060%=      5-min Rain = 0
KFL1 241823Z 31012KT 05/M03 A3021 RMK A01 T00461027  RH  059%=      5-min Rain = 0
KFL1 241824Z 30010KT 05/M03 A3021 RMK A01 T00461025  RH  060%=      5-min Rain = 0
KFL1 241825Z 29012KT 05/M03 A3021 RMK A01 T00451025  RH  061%=      5-min Rain = 0
KFL1 241826Z 28011KT 04/M02 A3021 RMK A01 T00431024  RH  062%=      5-min Rain = 0
KFL1 241827Z 28010KT 04/M02 A3021 RMK A01 T00421024  RH  062%=      5-min Rain = 0
KFL1 241828Z 29009KT 04/M02 A3021 RMK A01 T00431024  RH  062%=      5-min Rain = 0
KFL1 241829Z 28007KT 04/M02 A3021 RMK A01 T00431023  RH  062%=      5-min Rain = 0
KFL1 241830Z 28009KT 04/M02 A3021 RMK A01 T00431024  RH  062%=      5-min Rain = 0
KFL1 241831Z 29007KT 04/M02 A3021 RMK A01 T00441022  RH  062%=      5-min Rain = 0
KFL1 241832Z 31007KT 04/M02 A3021 RMK A01 T00441023  RH  061%=      5-min Rain = 0
KFL1 241833Z 30009KT 05/M02 A3021 RMK A01 T00461024  RH  060%=      5-min Rain = 0
KFL1 241834Z 29010KT 05/M02 A3021 RMK A01 T00481024  RH  060%=      5-min Rain = 0
KFL1 241835Z 30009KT 05/M03 A3021 RMK A01 T00491025  RH  059%=      5-min Rain = 0
KFL1 241836Z 29007KT 05/M02 A3021 RMK A01 T00521024  RH  058%=      5-min Rain = 0
KFL1 241837Z 28005KT 05/M03 A3021 RMK A01 T00531028  RH  056%=      5-min Rain = 0
KFL1 241838Z 30006KT 06/M03 A3021 RMK A01 T00571028  RH  055%=      5-min Rain = 0
KFL1 241839Z 28004KT 06/M03 A3021 RMK A01 T00591031  RH  053%=      5-min Rain = 0
KFL1 241840Z 26004KT 06/M03 A3021 RMK A01 T00611032  RH  051%=      5-min Rain = 0
KFL1 241841Z 27006KT 06/M03 A3021 RMK A01 T00621029  RH  052%=      5-min Rain = 0
KFL1 241842Z 29009KT 06/M03 A3021 RMK A01 T00601034  RH  051%=      5-min Rain = 0
KFL1 241843Z 31006KT 06/M04 A3021 RMK A01 T00581038  RH  050%=      5-min Rain = 0
KFL1 241844Z 28006KT 06/M04 A3021 RMK A01 T00581039  RH  050%=      5-min Rain = 0
KFL1 241845Z 28008KT 06/M04 A3021 RMK A01 T00571039  RH  050%=      5-min Rain = 0
KFL1 241846Z 28010KT 06/M04 A3021 RMK A01 T00561037  RH  051%=      5-min Rain = 0
KFL1 241847Z 30009KT 05/M04 A3021 RMK A01 T00541042  RH  050%=      5-min Rain = 0
KFL1 241848Z 29011KT 06/M04 A3021 RMK A01 T00551041  RH  050%=      5-min Rain = 0
KFL1 241849Z 27011KT 05/M05 A3021 RMK A01 T00541046  RH  048%=      5-min Rain = 0
KFL1 241850Z 26010KT 05/M05 A3021 RMK A01 T00541050  RH  047%=      5-min Rain = 0
KFL1 241851Z 27008KT 05/M05 A3021 RMK A01 T00541049  RH  047%=      5-min Rain = 0
KFL1 241852Z 27006KT 06/M04 A3021 RMK A01 T00571043  RH  049%=      5-min Rain = 0
KFL1 241853Z 28008KT 06/M04 A3021 RMK A01 T00601040  RH  049%=      5-min Rain = 0
KFL1 241854Z 30008KT 06/M04 A3021 RMK A01 T00611039  RH  049%=      5-min Rain = 0
KFL1 241855Z 29010KT 06/M04 A3021 RMK A01 T00621036  RH  049%=      5-min Rain = 0
KFL1 241856Z 29009KT 06/M04 A3021 RMK A01 T00591039  RH  049%=      5-min Rain = 0
KFL1 241857Z 29008KT 06/M04 A3021 RMK A01 T00581037  RH  051%=      5-min Rain = 0
KFL1 241858Z 30010KT 06/M04 A3021 RMK A01 T00561037  RH  051%=      5-min Rain = 0
KFL1 241859Z 29011KT 06/M04 A3021 RMK A01 T00551040  RH  050%=      5-min Rain = 0
KFL1 241900Z 29010KT 06/M04 A3021 RMK A01 T00551041  RH  050%=      5-min Rain = 0
KFL1 241901Z 30011KT 05/M04 A3021 RMK A01 T00541039  RH  051%=      5-min Rain = 0
KFL1 241902Z 30012KT 05/M04 A3021 RMK A01 T00531039  RH  051%=      5-min Rain = 0
KFL1 241903Z 30011KT 05/M04 A3021 RMK A01 T00531040  RH  051%=      5-min Rain = 0
KFL1 241904Z 30008KT 05/M04 A3021 RMK A01 T00521041  RH  051%=      5-min Rain = 0
KFL1 241905Z 28008KT 05/M04 A3021 RMK A01 T00521040  RH  052%=      5-min Rain = 0
KFL1 241906Z 28009KT 05/M04 A3021 RMK A01 T00521035  RH  053%=      5-min Rain = 0
KFL1 241907Z 27007KT 05/M04 A3021 RMK A01 T00511038  RH  053%=      5-min Rain = 0
KFL1 241908Z 28008KT 05/M04 A3021 RMK A01 T00511037  RH  053%=      5-min Rain = 0
KFL1 241909Z 28008KT 05/M04 A3022 RMK A01 T00501038  RH  053%=      5-min Rain = 0
KFL1 241910Z 28008KT 05/M04 A3021 RMK A01 T00521039  RH  052%=      5-min Rain = 0
KFL1 241911Z 28007KT 06/M04 A3021 RMK A01 T00551037  RH  051%=      5-min Rain = 0
KFL1 241912Z 28009KT 06/M04 A3021 RMK A01 T00561038  RH  051%=      5-min Rain = 0
KFL1 241913Z 29012KT 06/M04 A3021 RMK A01 T00571043  RH  049%=      5-min Rain = 0
KFL1 241914Z 29013KT 06/M04 A3021 RMK A01 T00581040  RH  049%=      5-min Rain = 0
KFL1 241915Z 27010KT 06/M04 A3021 RMK A01 T00551040  RH  050%=      5-min Rain = 0
KFL1 241916Z 26008KT 06/M04 A3021 RMK A01 T00561043  RH  049%=      5-min Rain = 0
KFL1 241917Z 25009KT 06/M04 A3021 RMK A01 T00621042  RH  047%=      5-min Rain = 0
KFL1 241918Z 27009KT 06/M04 A3021 RMK A01 T00621041  RH  048%=      5-min Rain = 0
KFL1 241919Z 28009KT 06/M04 A3021 RMK A01 T00611037  RH  049%=      5-min Rain = 0
KFL1 241920Z 29009KT 06/M04 A3021 RMK A01 T00591039  RH  049%=      5-min Rain = 0
KFL1 241921Z 32010G15KT 06/M04 A3021 RMK A01 T00621038  RH  048%=      5-min Rain = 0
KFL1 241922Z 32010KT 06/M04 A3021 RMK A01 T00601036  RH  050%=      5-min Rain = 0
KFL1 241923Z 30009KT 06/M03 A3021 RMK A01 T00561034  RH  052%=      5-min Rain = 0
KFL1 241924Z 30010KT 06/M03 A3021 RMK A01 T00561032  RH  053%=      5-min Rain = 0
KFL1 241925Z 29011KT 05/M03 A3021 RMK A01 T00541032  RH  054%=      5-min Rain = 0
KFL1 241926Z 30012KT 05/M04 A3022 RMK A01 T00511035  RH  054%=      5-min Rain = 0
KFL1 241927Z 30011KT 05/M04 A3022 RMK A01 T00511039  RH  052%=      5-min Rain = 0
KFL1 241928Z 30008KT 05/M04 A3022 RMK A01 T00541035  RH  053%=      5-min Rain = 0
KFL1 241929Z 30011KT 05/M03 A3021 RMK A01 T00541033  RH  053%=      5-min Rain = 0
KFL1 241930Z 30011KT 06/M03 A3021 RMK A01 T00571034  RH  052%=      5-min Rain = 0
KFL1 241931Z 28010KT 06/M04 A3021 RMK A01 T00581037  RH  051%=      5-min Rain = 0
KFL1 241932Z 30011KT 06/M04 A3022 RMK A01 T00561036  RH  051%=      5-min Rain = 0
KFL1 241933Z 31012KT 06/M04 A3022 RMK A01 T00561037  RH  051%=      5-min Rain = 0
KFL1 241934Z 30009KT 05/M04 A3022 RMK A01 T00541040  RH  051%=      5-min Rain = 0
KFL1 241935Z 30008KT 05/M04 A3022 RMK A01 T00541038  RH  051%=      5-min Rain = 0
KFL1 241936Z 29010KT 05/M04 A3022 RMK A01 T00531039  RH  051%=      5-min Rain = 0
KFL1 241937Z 29010KT 05/M04 A3021 RMK A01 T00531039  RH  052%=      5-min Rain = 0
KFL1 241938Z 29008KT 06/M04 A3021 RMK A01 T00551037  RH  051%=      5-min Rain = 0
KFL1 241939Z 28008KT 06/M04 A3021 RMK A01 T00551042  RH  050%=      5-min Rain = 0
KFL1 241940Z 30008KT 06/M04 A3021 RMK A01 T00591039  RH  049%=      5-min Rain = 0
KFL1 241941Z 30012KT 06/M04 A3021 RMK A01 T00621036  RH  050%=      5-min Rain = 0
KFL1 241942Z 29010KT 06/M04 A3022 RMK A01 T00611037  RH  049%=      5-min Rain = 0
KFL1 241943Z 29007KT 06/M04 A3022 RMK A01 T00601038  RH  049%=      5-min Rain = 0
KFL1 241944Z 29009KT 06/M04 A3022 RMK A01 T00591037  RH  050%=      5-min Rain = 0
KFL1 241945Z 28008KT 06/M04 A3022 RMK A01 T00581035  RH  051%=      5-min Rain = 0
KFL1 241946Z 28006KT 06/M04 A3022 RMK A01 T00581036  RH  051%=      5-min Rain = 0
KFL1 241947Z 28007KT 06/M04 A3022 RMK A01 T00601039  RH  049%=      5-min Rain = 0
KFL1 241948Z 29010KT 06/M04 A3022 RMK A01 T00601036  RH  050%=      5-min Rain = 0
KFL1 241949Z 29012KT 06/M04 A3022 RMK A01 T00581038  RH  050%=      5-min Rain = 0
KFL1 241950Z 29013KT 06/M05 A3021 RMK A01 T00581048  RH  047%=      5-min Rain = 0
KFL1 241951Z 29012KT 06/M05 A3022 RMK A01 T00581047  RH  047%=      5-min Rain = 0
KFL1 241952Z 29013KT 06/M05 A3022 RMK A01 T00561046  RH  048%=      5-min Rain = 0
KFL1 241953Z 29013KT 06/M05 A3022 RMK A01 T00551049  RH  047%=      5-min Rain = 0
KFL1 241954Z 30012KT 05/M05 A3022 RMK A01 T00541047  RH  048%=      5-min Rain = 0
KFL1 241955Z 30012KT 05/M05 A3022 RMK A01 T00531047  RH  048%=      5-min Rain = 0
KFL1 241956Z 28008KT 05/M05 A3022 RMK A01 T00521049  RH  048%=      5-min Rain = 0
KFL1 241957Z 29010KT 05/M05 A3022 RMK A01 T00531047  RH  048%=      5-min Rain = 0
KFL1 241958Z 29010KT 05/M04 A3022 RMK A01 T00541042  RH  050%=      5-min Rain = 0
KFL1 241959Z 30012KT 06/M05 A3022 RMK A01 T00581045  RH  048%=      5-min Rain = 0
KFL1 242000Z 29013KT 06/M05 A3022 RMK A01 T00631049  RH  044%=      5-min Rain = 0
KFL1 242001Z 30011KT 06/M05 A3022 RMK A01 T00641046  RH  045%=      5-min Rain = 0
KFL1 242002Z 27011KT 06/M05 A3022 RMK A01 T00611050  RH  045%=      5-min Rain = 0
KFL1 242003Z 26009KT 06/M05 A3022 RMK A01 T00621051  RH  044%=      5-min Rain = 0
KFL1 242004Z 26009KT 07/M05 A3022 RMK A01 T00651049  RH  044%=      5-min Rain = 0
KFL1 242005Z 26009KT 07/M05 A3022 RMK A01 T00681048  RH  043%=      5-min Rain = 0
KFL1 242006Z 24009KT 07/M05 A3022 RMK A01 T00711045  RH  043%=      5-min Rain = 0
KFL1 242007Z 25010KT 07/M05 A3022 RMK A01 T00691046  RH  044%=      5-min Rain = 0
KFL1 242008Z 25011KT 07/M05 A3022 RMK A01 T00671048  RH  043%=      5-min Rain = 0
KFL1 242009Z 28008G13KT 07/M05 A3022 RMK A01 T00671051  RH  043%=      5-min Rain = 0
KFL1 242010Z 27009KT 07/M05 A3022 RMK A01 T00691049  RH  043%=      5-min Rain = 0
KFL1 242011Z 26013G18KT 07/M05 A3022 RMK A01 T00691050  RH  042%=      5-min Rain = 0
KFL1 242012Z 27012KT 07/M05 A3022 RMK A01 T00681049  RH  043%=      5-min Rain = 0
KFL1 242013Z 27013KT 06/M05 A3022 RMK A01 T00641047  RH  045%=      5-min Rain = 0
KFL1 242014Z 28012KT 06/M05 A3022 RMK A01 T00641049  RH  044%=      5-min Rain = 0
KFL1 242015Z 29013KT 07/M05 A3022 RMK A01 T00661051  RH  043%=      5-min Rain = 0
KFL1 242016Z 28012KT 07/M05 A3022 RMK A01 T00691049  RH  043%=      5-min Rain = 0
KFL1 242017Z 27011KT 07/M05 A3022 RMK A01 T00701051  RH  042%=      5-min Rain = 0
KFL1 242018Z 26010KT 07/M05 A3022 RMK A01 T00731048  RH  042%=      5-min Rain = 0
KFL1 242019Z 24008KT 07/M05 A3022 RMK A01 T00721045  RH  043%=      5-min Rain = 0
KFL1 242020Z 26010KT 07/M04 A3022 RMK A01 T00691044  RH  045%=      5-min Rain = 0
KFL1 242021Z 26009KT 07/M04 A3022 RMK A01 T00661042  RH  046%=      5-min Rain = 0
KFL1 242022Z 25007KT 06/M05 A3022 RMK A01 T00631045  RH  046%=      5-min Rain = 0
KFL1 242023Z 28008G13KT 06/M04 A3022 RMK A01 T00601042  RH  048%=      5-min Rain = 0
KFL1 242024Z 29011KT 06/M04 A3022 RMK A01 T00591038  RH  050%=      5-min Rain = 0
KFL1 242025Z 28008KT 06/M04 A3022 RMK A01 T00581043  RH  048%=      5-min Rain = 0
KFL1 242026Z 28009KT 06/M04 A3022 RMK A01 T00581043  RH  048%=      5-min Rain = 0
KFL1 242027Z 30010KT 06/M04 A3022 RMK A01 T00591042  RH  048%=      5-min Rain = 0
KFL1 242028Z 31010KT 06/M04 A3022 RMK A01 T00591042  RH  048%=      5-min Rain = 0
KFL1 242029Z 31010KT 06/M04 A3022 RMK A01 T00591042  RH  048%=      5-min Rain = 0
KFL1 242030Z 31009KT 06/M04 A3022 RMK A01 T00591039  RH  049%=      5-min Rain = 0
KFL1 242031Z 32010KT 06/M04 A3022 RMK A01 T00571039  RH  050%=      5-min Rain = 0
KFL1 242032Z 31009KT 06/M04 A3022 RMK A01 T00561040  RH  050%=      5-min Rain = 0
KFL1 242033Z 31007KT 06/M04 A3022 RMK A01 T00561041  RH  050%=      5-min Rain = 0
KFL1 242034Z 31006KT 06/M04 A3022 RMK A01 T00571036  RH  051%=      5-min Rain = 0
KFL1 242035Z 31005KT 06/M03 A3022 RMK A01 T00571034  RH  052%=      5-min Rain = 0
KFL1 242036Z 30006KT 06/M03 A3022 RMK A01 T00551034  RH  053%=      5-min Rain = 0
KFL1 242037Z 29006KT 05/M03 A3022 RMK A01 T00541032  RH  054%=      5-min Rain = 0
KFL1 242038Z 31005KT 05/M04 A3022 RMK A01 T00531038  RH  052%=      5-min Rain = 0
KFL1 242039Z 32005KT 06/M04 A3022 RMK A01 T00551040  RH  050%=      5-min Rain = 0
KFL1 242040Z 32007KT 06/M04 A3022 RMK A01 T00571037  RH  051%=      5-min Rain = 0
KFL1 242041Z 32010KT 06/M04 A3022 RMK A01 T00561038  RH  051%=      5-min Rain = 0
KFL1 242042Z 30011KT 06/M04 A3022 RMK A01 T00561037  RH  051%=      5-min Rain = 0
KFL1 242043Z 29012KT 06/M04 A3022 RMK A01 T00561040  RH  050%=      5-min Rain = 0
KFL1 242044Z 29011KT 06/M04 A3022 RMK A01 T00551039  RH  051%=      5-min Rain = 0
KFL1 242045Z 30008KT 06/M04 A3022 RMK A01 T00551037  RH  051%=      5-min Rain = 0
KFL1 242046Z 31008KT 06/M04 A3022 RMK A01 T00551035  RH  053%=      5-min Rain = 0
KFL1 242047Z 31010KT 05/M04 A3022 RMK A01 T00531039  RH  051%=      5-min Rain = 0
KFL1 242048Z 31008KT 06/M04 A3022 RMK A01 T00561042  RH  049%=      5-min Rain = 0
KFL1 242049Z 30009KT 06/M04 A3022 RMK A01 T00581042  RH  049%=      5-min Rain = 0
KFL1 242050Z 28009KT 06/M04 A3022 RMK A01 T00611038  RH  049%=      5-min Rain = 0
KFL1 242051Z 28010KT 06/M04 A3022 RMK A01 T00631041  RH  047%=      5-min Rain = 0
KFL1 242052Z 27008KT 07/M04 A3022 RMK A01 T00651041  RH  047%=      5-min Rain = 0
KFL1 242053Z 29010G16KT 07/M04 A3022 RMK A01 T00651039  RH  047%=      5-min Rain = 0
KFL1 242054Z 29013KT 07/M04 A3022 RMK A01 T00651040  RH  047%=      5-min Rain = 0
KFL1 242055Z 29011KT 07/M04 A3022 RMK A01 T00651043  RH  046%=      5-min Rain = 0
KFL1 242056Z 28010KT 07/M04 A3022 RMK A01 T00661039  RH  047%=      5-min Rain = 0
KFL1 242057Z 28010KT 06/M04 A3022 RMK A01 T00641036  RH  049%=      5-min Rain = 0
KFL1 242058Z 26009KT 07/M04 A3022 RMK A01 T00661038  RH  047%=      5-min Rain = 0
KFL1 242059Z 26009KT 07/M04 A3022 RMK A01 T00701038  RH  046%=      5-min Rain = 0
KFL1 242100Z 25009KT 07/M04 A3022 RMK A01 T00721040  RH  045%=      5-min Rain = 0
KFL1 242101Z 25007KT 07/M04 A3022 RMK A01 T00741041  RH  044%=      5-min Rain = 0
KFL1 242102Z 26011KT 08/M04 A3022 RMK A01 T00761041  RH  043%=      5-min Rain = 0
KFL1 242103Z 28010KT 07/M04 A3022 RMK A01 T00741041  RH  044%=      5-min Rain = 0
KFL1 242104Z 29010KT 07/M04 A3022 RMK A01 T00711036  RH  046%=      5-min Rain = 0
KFL1 242105Z 30006KT 07/M04 A3022 RMK A01 T00701040  RH  045%=      5-min Rain = 0
KFL1 242106Z 29005KT 07/M04 A3022 RMK A01 T00671043  RH  045%=      5-min Rain = 0
KFL1 242107Z 29005KT 07/M03 A3022 RMK A01 T00661034  RH  049%=      5-min Rain = 0
KFL1 242108Z 27007KT 06/M03 A3022 RMK A01 T00621031  RH  051%=      5-min Rain = 0
KFL1 242109Z 28010KT 06/M04 A3022 RMK A01 T00621039  RH  048%=      5-min Rain = 0
KFL1 242110Z 30010KT 06/M04 A3022 RMK A01 T00621042  RH  047%=      5-min Rain = 0
KFL1 242111Z 29008KT 06/M04 A3022 RMK A01 T00631044  RH  046%=      5-min Rain = 0
KFL1 242112Z 29011KT 07/M04 A3022 RMK A01 T00651042  RH  046%=      5-min Rain = 0
KFL1 242113Z 29009KT 07/M04 A3022 RMK A01 T00661040  RH  047%=      5-min Rain = 0
KFL1 242114Z 26009G14KT 06/M04 A3022 RMK A01 T00621041  RH  047%=      5-min Rain = 0
KFL1 242115Z 28015KT 06/M04 A3022 RMK A01 T00621043  RH  047%=      5-min Rain = 0
KFL1 242116Z 29017KT 07/M04 A3022 RMK A01 T00651044  RH  046%=      5-min Rain = 0
KFL1 242117Z 28013KT 07/M05 A3022 RMK A01 T00661048  RH  044%=      5-min Rain = 0
KFL1 242118Z 26011KT 07/M05 A3022 RMK A01 T00681050  RH  043%=      5-min Rain = 0
KFL1 242119Z 27009KT 07/M05 A3022 RMK A01 T00711050  RH  042%=      5-min Rain = 0
KFL1 242120Z 27010KT 07/M05 A3022 RMK A01 T00731047  RH  042%=      5-min Rain = 0
KFL1 242121Z 26011KT 08/M04 A3022 RMK A01 T00761043  RH  043%=      5-min Rain = 0
KFL1 242122Z 27015KT 08/M05 A3022 RMK A01 T00751046  RH  042%=      5-min Rain = 0
KFL1 242123Z 28012KT 07/M05 A3022 RMK A01 T00741049  RH  041%=      5-min Rain = 0
KFL1 242124Z 26011KT 07/M05 A3022 RMK A01 T00691046  RH  044%=      5-min Rain = 0
KFL1 242125Z 27009KT 07/M05 A3022 RMK A01 T00671051  RH  043%=      5-min Rain = 0
KFL1 242126Z 26010KT 07/M05 A3022 RMK A01 T00701045  RH  044%=      5-min Rain = 0
KFL1 242127Z 26013KT 07/M05 A3022 RMK A01 T00711045  RH  043%=      5-min Rain = 0
KFL1 242128Z 26011KT 07/M05 A3022 RMK A01 T00711046  RH  043%=      5-min Rain = 0
KFL1 242129Z 26009KT 07/M05 A3022 RMK A01 T00711046  RH  043%=      5-min Rain = 0
KFL1 242130Z 27010KT 07/M05 A3022 RMK A01 T00711047  RH  043%=      5-min Rain = 0
KFL1 242131Z 28009KT 07/M05 A3022 RMK A01 T00721049  RH  042%=      5-min Rain = 0
KFL1 242132Z 29010KT 07/M04 A3022 RMK A01 T00701044  RH  044%=      5-min Rain = 0
KFL1 242133Z 30011KT 07/M04 A3022 RMK A01 T00691043  RH  045%=      5-min Rain = 0
KFL1 242134Z 29011KT 07/M04 A3022 RMK A01 T00691044  RH  044%=      5-min Rain = 0
KFL1 242135Z 30010KT 07/M05 A3022 RMK A01 T00711045  RH  044%=      5-min Rain = 0
KFL1 242136Z 30012KT 07/M05 A3022 RMK A01 T00691047  RH  043%=      5-min Rain = 0
KFL1 242137Z 30011KT 07/M04 A3022 RMK A01 T00671043  RH  045%=      5-min Rain = 0
KFL1 242138Z 29008KT 07/M04 A3022 RMK A01 T00661043  RH  046%=      5-min Rain = 0
KFL1 242139Z 31009KT 06/M04 A3023 RMK A01 T00641040  RH  047%=      5-min Rain = 0
KFL1 242140Z 30009KT 06/M04 A3023 RMK A01 T00631041  RH  047%=      5-min Rain = 0
KFL1 242141Z 30010KT 06/M04 A3023 RMK A01 T00631036  RH  049%=      5-min Rain = 0
KFL1 242142Z 30013KT 06/M04 A3023 RMK A01 T00601037  RH  050%=      5-min Rain = 0
KFL1 242143Z 30014KT 06/M04 A3023 RMK A01 T00581041  RH  049%=      5-min Rain = 0
KFL1 242144Z 30012KT 06/M04 A3023 RMK A01 T00581043  RH  048%=      5-min Rain = 0
KFL1 242145Z 30013KT 06/M04 A3023 RMK A01 T00571044  RH  048%=      5-min Rain = 0
KFL1 242146Z 30009KT 06/M05 A3023 RMK A01 T00601046  RH  047%=      5-min Rain = 0
KFL1 242147Z 31009KT 06/M05 A3023 RMK A01 T00641047  RH  045%=      5-min Rain = 0
KFL1 242148Z 29010KT 07/M04 A3023 RMK A01 T00671041  RH  046%=      5-min Rain = 0
KFL1 242149Z 27008KT 07/M04 A3023 RMK A01 T00671040  RH  046%=      5-min Rain = 0
KFL1 242150Z 29009KT 07/M04 A3023 RMK A01 T00651040  RH  047%=      5-min Rain = 0
KFL1 242151Z 28010KT 06/M04 A3023 RMK A01 T00641041  RH  047%=      5-min Rain = 0
KFL1 242152Z 28009KT 06/M04 A3023 RMK A01 T00631043  RH  046%=      5-min Rain = 0
KFL1 242153Z 28008KT 06/M05 A3023 RMK A01 T00621046  RH  046%=      5-min Rain = 0
KFL1 242154Z 29008KT 06/M04 A3023 RMK A01 T00601042  RH  048%=      5-min Rain = 0
KFL1 242155Z 29010KT 06/M04 A3022 RMK A01 T00591041  RH  048%=      5-min Rain = 0
KFL1 242156Z 29009KT 06/M04 A3023 RMK A01 T00591041  RH  048%=      5-min Rain = 0
KFL1 242157Z 29010KT 06/M05 A3023 RMK A01 T00581045  RH  048%=      5-min Rain = 0
KFL1 242158Z 28010KT 06/M05 A3023 RMK A01 T00591047  RH  047%=      5-min Rain = 0
KFL1 242159Z 29008KT 06/M05 A3023 RMK A01 T00611047  RH  046%=      5-min Rain = 0
KFL1 242200Z 29008KT 06/M04 A3023 RMK A01 T00621040  RH  048%=      5-min Rain = 0
KFL1 242201Z 29008KT 06/M04 A3023 RMK A01 T00611044  RH  047%=      5-min Rain = 0
KFL1 242202Z 29008KT 06/M04 A3023 RMK A01 T00601044  RH  047%=      5-min Rain = 0
KFL1 242203Z 28008KT 06/M04 A3023 RMK A01 T00631044  RH  046%=      5-min Rain = 0
KFL1 242204Z 28010KT 07/M05 A3023 RMK A01 T00671048  RH  044%=      5-min Rain = 0
KFL1 242205Z 28011KT 07/M05 A3023 RMK A01 T00681054  RH  042%=      5-min Rain = 0
KFL1 242206Z 27008KT 07/M05 A3023 RMK A01 T00701052  RH  042%=      5-min Rain = 0
KFL1 242207Z 28011KT 07/M05 A3023 RMK A01 T00721048  RH  042%=      5-min Rain = 0
KFL1 242208Z 28013KT 07/M05 A3023 RMK A01 T00701050  RH  042%=      5-min Rain = 0
KFL1 242209Z 28014KT 07/M05 A3023 RMK A01 T00671051  RH  043%=      5-min Rain = 0
KFL1 242210Z 28012KT 07/M05 A3023 RMK A01 T00671054  RH  042%=      5-min Rain = 0
KFL1 242211Z 28009KT 07/M06 A3023 RMK A01 T00691055  RH  041%=      5-min Rain = 0
KFL1 242212Z 28010KT 07/M06 A3023 RMK A01 T00701055  RH  040%=      5-min Rain = 0
KFL1 242213Z 29009KT 07/M05 A3023 RMK A01 T00721051  RH  041%=      5-min Rain = 0
KFL1 242214Z 28012KT 07/M04 A3023 RMK A01 T00741044  RH  043%=      5-min Rain = 0
KFL1 242215Z 26010KT 07/M05 A3023 RMK A01 T00731052  RH  041%=      5-min Rain = 0
KFL1 242216Z 27010KT 07/M06 A3023 RMK A01 T00731057  RH  039%=      5-min Rain = 0
KFL1 242217Z 28007KT 07/M06 A3023 RMK A01 T00731057  RH  039%=      5-min Rain = 0
KFL1 242218Z 30012KT 08/M05 A3023 RMK A01 T00751050  RH  041%=      5-min Rain = 0
KFL1 242219Z 29015KT 07/M05 A3023 RMK A01 T00731049  RH  041%=      5-min Rain = 0
KFL1 242220Z 29015KT 07/M06 A3023 RMK A01 T00721056  RH  040%=      5-min Rain = 0
KFL1 242221Z 31014KT 07/M06 A3023 RMK A01 T00711057  RH  040%=      5-min Rain = 0
KFL1 242222Z 28009KT 07/M06 A3023 RMK A01 T00701063  RH  038%=      5-min Rain = 0
KFL1 242223Z 29010KT 07/M06 A3023 RMK A01 T00711061  RH  039%=      5-min Rain = 0
KFL1 242224Z 30011KT 07/M06 A3023 RMK A01 T00731059  RH  038%=      5-min Rain = 0
KFL1 242225Z 30010KT 08/M06 A3023 RMK A01 T00751064  RH  037%=      5-min Rain = 0
KFL1 242226Z 30008KT 08/M07 A3023 RMK A01 T00771065  RH  036%=      5-min Rain = 0
KFL1 242227Z 28011KT 08/M06 A3023 RMK A01 T00781062  RH  037%=      5-min Rain = 0
KFL1 242228Z 27010KT 08/M06 A3023 RMK A01 T00771059  RH  037%=      5-min Rain = 0
KFL1 242229Z 27010KT 08/M06 A3023 RMK A01 T00771056  RH  038%=      5-min Rain = 0
KFL1 242230Z 27012KT 08/M06 A3023 RMK A01 T00771055  RH  039%=      5-min Rain = 0
KFL1 242231Z 28012KT 08/M06 A3023 RMK A01 T00761059  RH  038%=      5-min Rain = 0
KFL1 242232Z 29010KT 08/M06 A3023 RMK A01 T00751055  RH  039%=      5-min Rain = 0
KFL1 242233Z 29009KT 07/M06 A3023 RMK A01 T00741060  RH  038%=      5-min Rain = 0
KFL1 242234Z 29009KT 08/M06 A3023 RMK A01 T00751057  RH  039%=      5-min Rain = 0
KFL1 242235Z 29008KT 08/M06 A3023 RMK A01 T00761063  RH  037%=      5-min Rain = 0
KFL1 242236Z 26008KT 08/M06 A3023 RMK A01 T00771058  RH  038%=      5-min Rain = 0
KFL1 242237Z 27008KT 08/M05 A3023 RMK A01 T00771054  RH  039%=      5-min Rain = 0
KFL1 242238Z 27009KT 08/M05 A3023 RMK A01 T00771052  RH  040%=      5-min Rain = 0
KFL1 242239Z 29012KT 08/M05 A3023 RMK A01 T00791052  RH  039%=      5-min Rain = 0
KFL1 242240Z 29011KT 08/M06 A3023 RMK A01 T00771055  RH  039%=      5-min Rain = 0
KFL1 242241Z 29012KT 08/M06 A3023 RMK A01 T00771056  RH  038%=      5-min Rain = 0
KFL1 242242Z 29013KT 08/M06 A3023 RMK A01 T00761059  RH  038%=      5-min Rain = 0
KFL1 242243Z 30008KT 08/M06 A3023 RMK A01 T00751063  RH  037%=      5-min Rain = 0
KFL1 242244Z 29011KT 08/M06 A3023 RMK A01 T00751062  RH  037%=      5-min Rain = 0
KFL1 242245Z 31013KT 08/M07 A3023 RMK A01 T00751068  RH  035%=      5-min Rain = 0
KFL1 242246Z 29014KT 08/M07 A3023 RMK A01 T00751065  RH  036%=      5-min Rain = 0
KFL1 242247Z 30013KT 07/M06 A3023 RMK A01 T00731063  RH  037%=      5-min Rain = 0
KFL1 242248Z 30016KT 07/M07 A3023 RMK A01 T00711068  RH  036%=      5-min Rain = 0
KFL1 242249Z 30015KT 07/M07 A3023 RMK A01 T00721067  RH  037%=      5-min Rain = 0
KFL1 242250Z 30014KT 07/M07 A3023 RMK A01 T00721067  RH  036%=      5-min Rain = 0
KFL1 242251Z 31013KT 07/M07 A3023 RMK A01 T00731065  RH  037%=      5-min Rain = 0
KFL1 242252Z 31014KT 07/M07 A3023 RMK A01 T00721066  RH  037%=      5-min Rain = 0
KFL1 242253Z 29015KT 07/M06 A3023 RMK A01 T00721060  RH  039%=      5-min Rain = 0
KFL1 242254Z 28013KT 07/M06 A3023 RMK A01 T00711057  RH  040%=      5-min Rain = 0
KFL1 242255Z 29013KT 07/M06 A3023 RMK A01 T00691059  RH  040%=      5-min Rain = 0
KFL1 242256Z 30010KT 07/M06 A3023 RMK A01 T00691056  RH  041%=      5-min Rain = 0
KFL1 242257Z 30010KT 07/M06 A3023 RMK A01 T00691061  RH  039%=      5-min Rain = 0
KFL1 242258Z 29011KT 07/M06 A3023 RMK A01 T00691055  RH  041%=      5-min Rain = 0
KFL1 242259Z 28008KT 07/M05 A3023 RMK A01 T00681052  RH  042%=      5-min Rain = 0
KFL1 242300Z 27007KT 07/M05 A3023 RMK A01 T00661054  RH  042%=      5-min Rain = 0
KFL1 242301Z 28009KT 06/M05 A3023 RMK A01 T00641050  RH  044%=      5-min Rain = 0
KFL1 242302Z 29014KT 06/M06 A3023 RMK A01 T00631058  RH  041%=      5-min Rain = 0
KFL1 242303Z 30011KT 06/M06 A3023 RMK A01 T00601058  RH  042%=      5-min Rain = 0
KFL1 242304Z 30010KT 06/M06 A3023 RMK A01 T00581056  RH  044%=      5-min Rain = 0
KFL1 242305Z 29011KT 06/M06 A3023 RMK A01 T00571057  RH  044%=      5-min Rain = 0
KFL1 242306Z 29013KT 06/M06 A3023 RMK A01 T00571058  RH  043%=      5-min Rain = 0
KFL1 242307Z 30012KT 06/M06 A3023 RMK A01 T00591058  RH  043%=      5-min Rain = 0
KFL1 242308Z 30012KT 06/M07 A3023 RMK A01 T00591065  RH  041%=      5-min Rain = 0
KFL1 242309Z 30013KT 06/M06 A3023 RMK A01 T00621064  RH  040%=      5-min Rain = 0
KFL1 242310Z 31013KT 07/M06 A3023 RMK A01 T00651064  RH  039%=      5-min Rain = 0
KFL1 242311Z 30012KT 07/M07 A3023 RMK A01 T00681067  RH  037%=      5-min Rain = 0
KFL1 242312Z 30013KT 07/M07 A3023 RMK A01 T00721066  RH  037%=      5-min Rain = 0
KFL1 242313Z 30016G21KT 07/M06 A3023 RMK A01 T00721062  RH  038%=      5-min Rain = 0
KFL1 242314Z 29017KT 07/M06 A3023 RMK A01 T00711063  RH  038%=      5-min Rain = 0
KFL1 242315Z 29015KT 07/M06 A3023 RMK A01 T00701060  RH  039%=      5-min Rain = 0
KFL1 242316Z 30014KT 07/M06 A3023 RMK A01 T00671059  RH  040%=      5-min Rain = 0
KFL1 242317Z 29012KT 07/M06 A3023 RMK A01 T00681062  RH  039%=      5-min Rain = 0
KFL1 242318Z 29013KT 07/M06 A3023 RMK A01 T00691055  RH  041%=      5-min Rain = 0
KFL1 242319Z 29014KT 07/M06 A3023 RMK A01 T00651059  RH  041%=      5-min Rain = 0
KFL1 242320Z 29011KT 06/M06 A3023 RMK A01 T00611062  RH  041%=      5-min Rain = 0
KFL1 242321Z 29012KT 06/M06 A3023 RMK A01 T00611062  RH  041%=      5-min Rain = 0
KFL1 242322Z 28011KT 06/M06 A3023 RMK A01 T00621064  RH  040%=      5-min Rain = 0
KFL1 242323Z 29012KT 07/M07 A3023 RMK A01 T00651065  RH  039%=      5-min Rain = 0
KFL1 242324Z 29012KT 07/M06 A3023 RMK A01 T00671060  RH  040%=      5-min Rain = 0
KFL1 242325Z 30011KT 07/M06 A3023 RMK A01 T00661059  RH  041%=      5-min Rain = 0
KFL1 242326Z 29011KT 07/M06 A3023 RMK A01 T00651064  RH  039%=      5-min Rain = 0
KFL1 242327Z 27010KT 07/M06 A3023 RMK A01 T00661062  RH  040%=      5-min Rain = 0
KFL1 242328Z 27011KT 07/M06 A3023 RMK A01 T00671064  RH  039%=      5-min Rain = 0
KFL1 242329Z 29009KT 07/M06 A3023 RMK A01 T00671061  RH  040%=      5-min Rain = 0
KFL1 242330Z 30009KT 07/M06 A3023 RMK A01 T00661060  RH  040%=      5-min Rain = 0
KFL1 242331Z 30010KT 07/M06 A3023 RMK A01 T00681061  RH  039%=      5-min Rain = 0
KFL1 242332Z 31008KT 07/M06 A3023 RMK A01 T00701063  RH  038%=      5-min Rain = 0
KFL1 242333Z 29008KT 07/M07 A3023 RMK A01 T00701066  RH  037%=      5-min Rain = 0
KFL1 242334Z 29010KT 07/M06 A3023 RMK A01 T00701058  RH  040%=      5-min Rain = 0
KFL1 242335Z 28015KT 07/M06 A3023 RMK A01 T00701061  RH  039%=      5-min Rain = 0
KFL1 242336Z 29015KT 07/M06 A3023 RMK A01 T00691063  RH  038%=      5-min Rain = 0
KFL1 242337Z 30013KT 07/M06 A3023 RMK A01 T00681060  RH  040%=      5-min Rain = 0
KFL1 242338Z 31013KT 07/M06 A3024 RMK A01 T00661064  RH  039%=      5-min Rain = 0
KFL1 242339Z 30014KT 07/M07 A3024 RMK A01 T00671066  RH  038%=      5-min Rain = 0
KFL1 242340Z 30016KT 07/M06 A3024 RMK A01 T00681063  RH  039%=      5-min Rain = 0
KFL1 242341Z 29013KT 07/M06 A3024 RMK A01 T00681060  RH  040%=      5-min Rain = 0
KFL1 242342Z 29011KT 07/M06 A3024 RMK A01 T00681055  RH  041%=      5-min Rain = 0
KFL1 242343Z 30008KT 07/M05 A3024 RMK A01 T00671053  RH  042%=      5-min Rain = 0
KFL1 242344Z 30010KT 07/M06 A3024 RMK A01 T00651058  RH  041%=      5-min Rain = 0
KFL1 242345Z 30011KT 07/M06 A3024 RMK A01 T00671059  RH  040%=      5-min Rain = 0
KFL1 242346Z 30011KT 07/M05 A3024 RMK A01 T00671054  RH  041%=      5-min Rain = 0
KFL1 242347Z 30011KT 07/M06 A3024 RMK A01 T00671057  RH  041%=      5-min Rain = 0
KFL1 242348Z 30010KT 07/M06 A3024 RMK A01 T00691063  RH  039%=      5-min Rain = 0
KFL1 242349Z 30013KT 07/M06 A3024 RMK A01 T00701064  RH  038%=      5-min Rain = 0
KFL1 242350Z 30013KT 07/M06 A3024 RMK A01 T00711064  RH  038%=      5-min Rain = 0
KFL1 242351Z 29010KT 07/M06 A3024 RMK A01 T00691060  RH  039%=      5-min Rain = 0
KFL1 242352Z 29007KT 07/M06 A3024 RMK A01 T00691058  RH  040%=      5-min Rain = 0
KFL1 242353Z 30008KT 07/M06 A3024 RMK A01 T00681056  RH  041%=      5-min Rain = 0
KFL1 242354Z 30009KT 07/M06 A3024 RMK A01 T00691058  RH  040%=      5-min Rain = 0
KFL1 242355Z 28009KT 07/M06 A3024 RMK A01 T00701057  RH  040%=      5-min Rain = 0
KFL1 242356Z 29011KT 07/M06 A3024 RMK A01 T00691058  RH  040%=      5-min Rain = 0
KFL1 242357Z 28011KT 07/M06 A3024 RMK A01 T00691059  RH  040%=      5-min Rain = 0
KFL1 242358Z 27011KT 07/M06 A3024 RMK A01 T00671058  RH  040%=      5-min Rain = 0
KFL1 242359Z 27009KT 07/M07 A3024 RMK A01 T00671066  RH  038%=      5-min Rain = 0
KFL1 250000Z 27009KT 07/M06 A3024 RMK A01 T00711062  RH  038%=      5-min Rain = 0
KFL1 250001Z 27008KT 07/M06 A3024 RMK A01 T00691060  RH  039%=      5-min Rain = 0
KFL1 250002Z 27009KT 07/M06 A3024 RMK A01 T00691064  RH  038%=      5-min Rain = 0
KFL1 250003Z 29007KT 07/M06 A3024 RMK A01 T00691063  RH  038%=      5-min Rain = 0
KFL1 250004Z 30008KT 07/M06 A3024 RMK A01 T00701060  RH  039%=      5-min Rain = 0
KFL1 250005Z 30010KT 07/M07 A3024 RMK A01 T00711066  RH  037%=      5-min Rain = 0
KFL1 250006Z 30010KT 07/M07 A3024 RMK A01 T00711065  RH  037%=      5-min Rain = 0
KFL1 250007Z 30008KT 07/M06 A3024 RMK A01 T00691058  RH  040%=      5-min Rain = 0
KFL1 250008Z 31008KT 07/M06 A3024 RMK A01 T00681062  RH  039%=      5-min Rain = 0
KFL1 250009Z 30011KT 07/M07 A3024 RMK A01 T00671067  RH  038%=      5-min Rain = 0
KFL1 250010Z 31012KT 07/M07 A3024 RMK A01 T00701067  RH  037%=      5-min Rain = 0
KFL1 250011Z 30011KT 07/M06 A3024 RMK A01 T00711062  RH  038%=      5-min Rain = 0
KFL1 250012Z 31010KT 07/M07 A3025 RMK A01 T00691066  RH  038%=      5-min Rain = 0
KFL1 250013Z 30010KT 07/M07 A3025 RMK A01 T00701067  RH  037%=      5-min Rain = 0
KFL1 250014Z 30008KT 07/M07 A3025 RMK A01 T00701067  RH  037%=      5-min Rain = 0
KFL1 250015Z 29009KT 07/M07 A3025 RMK A01 T00721067  RH  037%=      5-min Rain = 0
KFL1 250016Z 29008KT 07/M06 A3025 RMK A01 T00711062  RH  038%=      5-min Rain = 0
KFL1 250017Z 28008KT 07/M06 A3025 RMK A01 T00711061  RH  039%=      5-min Rain = 0
KFL1 250018Z 28009KT 07/M06 A3025 RMK A01 T00701060  RH  039%=      5-min Rain = 0
KFL1 250019Z 27009KT 07/M06 A3025 RMK A01 T00681062  RH  039%=      5-min Rain = 0
KFL1 250020Z 28010KT 07/M06 A3025 RMK A01 T00681061  RH  039%=      5-min Rain = 0
KFL1 250021Z 27008KT 07/M06 A3025 RMK A01 T00671061  RH  040%=      5-min Rain = 0
KFL1 250022Z 29009KT 07/M06 A3025 RMK A01 T00671063  RH  039%=      5-min Rain = 0
KFL1 250023Z 27009KT 07/M06 A3025 RMK A01 T00681062  RH  039%=      5-min Rain = 0
KFL1 250024Z 29010KT 07/M06 A3025 RMK A01 T00671064  RH  039%=      5-min Rain = 0
KFL1 250025Z 29011KT 07/M06 A3025 RMK A01 T00661058  RH  041%=      5-min Rain = 0
KFL1 250026Z 28011KT 06/M06 A3025 RMK A01 T00641059  RH  041%=      5-min Rain = 0
KFL1 250027Z 28010G15KT 06/M06 A3025 RMK A01 T00621059  RH  042%=      5-min Rain = 0
KFL1 250028Z 28012KT 06/M06 A3025 RMK A01 T00621064  RH  040%=      5-min Rain = 0
KFL1 250029Z 28012KT 07/M07 A3025 RMK A01 T00651065  RH  039%=      5-min Rain = 0
KFL1 250030Z 29012KT 07/M07 A3025 RMK A01 T00651066  RH  038%=      5-min Rain = 0
KFL1 250031Z 28010KT 07/M07 A3025 RMK A01 T00651066  RH  039%=      5-min Rain = 0
KFL1 250032Z 28011KT 07/M07 A3025 RMK A01 T00661065  RH  038%=      5-min Rain = 0
KFL1 250033Z 28010KT 07/M07 A3025 RMK A01 T00661066  RH  038%=      5-min Rain = 0
KFL1 250034Z 28010KT 07/M06 A3025 RMK A01 T00651061  RH  040%=      5-min Rain = 0
KFL1 250035Z 29008KT 06/M05 A3025 RMK A01 T00621054  RH  043%=      5-min Rain = 0
KFL1 250036Z 30011KT 06/M06 A3025 RMK A01 T00601057  RH  043%=      5-min Rain = 0
KFL1 250037Z 29012KT 06/M06 A3025 RMK A01 T00621059  RH  042%=      5-min Rain = 0
KFL1 250038Z 30011KT 06/M06 A3025 RMK A01 T00631056  RH  042%=      5-min Rain = 0
KFL1 250039Z 31009KT 06/M06 A3025 RMK A01 T00621062  RH  041%=      5-min Rain = 0
KFL1 250040Z 30008KT 06/M06 A3025 RMK A01 T00641060  RH  041%=      5-min Rain = 0
KFL1 250041Z 30007KT 06/M06 A3025 RMK A01 T00641061  RH  040%=      5-min Rain = 0
KFL1 250042Z 30009KT 06/M06 A3025 RMK A01 T00641061  RH  040%=      5-min Rain = 0
KFL1 250043Z 29009KT 07/M06 A3025 RMK A01 T00651060  RH  040%=      5-min Rain = 0
KFL1 250044Z 29008KT 06/M06 A3025 RMK A01 T00641059  RH  041%=      5-min Rain = 0
KFL1 250045Z 30008KT 06/M06 A3025 RMK A01 T00641060  RH  041%=      5-min Rain = 0
KFL1 250046Z 30009KT 06/M06 A3025 RMK A01 T00631061  RH  041%=      5-min Rain = 0
KFL1 250047Z 30008KT 06/M06 A3025 RMK A01 T00621062  RH  041%=      5-min Rain = 0
KFL1 250048Z 31011KT 06/M06 A3025 RMK A01 T00631058  RH  042%=      5-min Rain = 0
KFL1 250049Z 30011KT 06/M06 A3025 RMK A01 T00611061  RH  041%=      5-min Rain = 0
KFL1 250050Z 30013KT 06/M06 A3025 RMK A01 T00601063  RH  041%=      5-min Rain = 0
KFL1 250051Z 30010KT 06/M06 A3025 RMK A01 T00611063  RH  041%=      5-min Rain = 0
KFL1 250052Z 30010KT 06/M06 A3025 RMK A01 T00601063  RH  041%=      5-min Rain = 0
KFL1 250053Z 30009KT 06/M06 A3025 RMK A01 T00601059  RH  042%=      5-min Rain = 0
KFL1 250054Z 30010KT 06/M06 A3025 RMK A01 T00591059  RH  042%=      5-min Rain = 0
KFL1 250055Z 29009KT 06/M06 A3025 RMK A01 T00571062  RH  042%=      5-min Rain = 0
KFL1 250056Z 29009KT 06/M06 A3025 RMK A01 T00581059  RH  043%=      5-min Rain = 0
KFL1 250057Z 30008KT 06/M06 A3025 RMK A01 T00571058  RH  043%=      5-min Rain = 0
KFL1 250058Z 29008KT 05/M05 A3025 RMK A01 T00541054  RH  046%=      5-min Rain = 0
KFL1 250059Z 30007KT 05/M06 A3025 RMK A01 T00521056  RH  045%=      5-min Rain = 0
KFL1 250100Z 29007KT 05/M06 A3025 RMK A01 T00531058  RH  045%=      5-min Rain = 0
KFL1 250101Z 29007KT 05/M05 A3025 RMK A01 T00531050  RH  047%=      5-min Rain = 0
KFL1 250102Z 29008KT 05/M06 A3025 RMK A01 T00511056  RH  046%=      5-min Rain = 0
KFL1 250103Z 29007KT 05/M06 A3025 RMK A01 T00521055  RH  046%=      5-min Rain = 0
KFL1 250104Z 29007KT 05/M05 A3025 RMK A01 T00521054  RH  046%=      5-min Rain = 0
KFL1 250105Z 29006KT 05/M05 A3026 RMK A01 T00501051  RH  048%=      5-min Rain = 0
KFL1 250106Z 29007KT 05/M06 A3026 RMK A01 T00511055  RH  046%=      5-min Rain = 0
KFL1 250107Z 29007KT 05/M05 A3026 RMK A01 T00501054  RH  047%=      5-min Rain = 0
KFL1 250108Z 29007KT 05/M05 A3026 RMK A01 T00491052  RH  048%=      5-min Rain = 0
KFL1 250109Z 29007KT 05/M05 A3026 RMK A01 T00471053  RH  048%=      5-min Rain = 0
KFL1 250110Z 30008KT 05/M06 A3026 RMK A01 T00481056  RH  047%=      5-min Rain = 0
KFL1 250111Z 30008KT 05/M06 A3026 RMK A01 T00491058  RH  046%=      5-min Rain = 0
KFL1 250112Z 30007KT 05/M06 A3026 RMK A01 T00501059  RH  045%=      5-min Rain = 0
KFL1 250113Z 30007KT 05/M06 A3026 RMK A01 T00501058  RH  045%=      5-min Rain = 0
KFL1 250114Z 30007KT 05/M06 A3026 RMK A01 T00491056  RH  046%=      5-min Rain = 0
KFL1 250115Z 29006KT 05/M06 A3026 RMK A01 T00501055  RH  046%=      5-min Rain = 0
KFL1 250116Z 29006KT 05/M05 A3026 RMK A01 T00491052  RH  048%=      5-min Rain = 0
KFL1 250117Z 29006KT 05/M05 A3026 RMK A01 T00461054  RH  049%=      5-min Rain = 0
KFL1 250118Z 28006KT 05/M06 A3026 RMK A01 T00461059  RH  046%=      5-min Rain = 0
KFL1 250119Z 28007KT 05/M06 A3026 RMK A01 T00511056  RH  046%=      5-min Rain = 0
KFL1 250120Z 29007KT 05/M06 A3026 RMK A01 T00511057  RH  046%=      5-min Rain = 0
KFL1 250121Z 29006KT 05/M05 A3026 RMK A01 T00471053  RH  048%=      5-min Rain = 0
KFL1 250122Z 28007KT 04/M06 A3026 RMK A01 T00441057  RH  048%=      5-min Rain = 0
KFL1 250123Z 28007KT 05/M06 A3026 RMK A01 T00461060  RH  046%=      5-min Rain = 0
KFL1 250124Z 28007KT 05/M06 A3026 RMK A01 T00461059  RH  046%=      5-min Rain = 0
KFL1 250125Z 29007KT 05/M06 A3026 RMK A01 T00451059  RH  047%=      5-min Rain = 0
KFL1 250126Z 28007KT 05/M06 A3026 RMK A01 T00461059  RH  047%=      5-min Rain = 0
KFL1 250127Z 28008KT 05/M06 A3026 RMK A01 T00461059  RH  046%=      5-min Rain = 0
KFL1 250128Z 29009KT 05/M06 A3026 RMK A01 T00451059  RH  047%=      5-min Rain = 0
KFL1 250129Z 28008KT 05/M06 A3026 RMK A01 T00461059  RH  046%=      5-min Rain = 0
KFL1 250130Z 28008KT 05/M06 A3026 RMK A01 T00461062  RH  045%=      5-min Rain = 0
KFL1 250131Z 29008KT 05/M06 A3026 RMK A01 T00481060  RH  046%=      5-min Rain = 0
KFL1 250132Z 29008KT 04/M06 A3026 RMK A01 T00441057  RH  048%=      5-min Rain = 0
KFL1 250133Z 29007KT 04/M05 A3026 RMK A01 T00401054  RH  050%=      5-min Rain = 0
KFL1 250134Z 29007KT 04/M06 A3026 RMK A01 T00371055  RH  051%=      5-min Rain = 0
KFL1 250135Z 29007KT 04/M05 A3026 RMK A01 T00351052  RH  053%=      5-min Rain = 0
KFL1 250136Z 29008KT 03/M05 A3026 RMK A01 T00321054  RH  054%=      5-min Rain = 0
KFL1 250137Z 28007KT 03/M05 A3026 RMK A01 T00321053  RH  054%=      5-min Rain = 0
KFL1 250138Z 28008KT 03/M06 A3026 RMK A01 T00321056  RH  052%=      5-min Rain = 0
KFL1 250139Z 29007KT 04/M06 A3026 RMK A01 T00351059  RH  050%=      5-min Rain = 0
KFL1 250140Z 28007KT 04/M06 A3026 RMK A01 T00371059  RH  049%=      5-min Rain = 0
KFL1 250141Z 28007KT 04/M06 A3026 RMK A01 T00381060  RH  049%=      5-min Rain = 0
KFL1 250142Z 29007KT 04/M06 A3026 RMK A01 T00391058  RH  049%=      5-min Rain = 0
KFL1 250143Z 29007KT 04/M06 A3026 RMK A01 T00391059  RH  049%=      5-min Rain = 0
KFL1 250144Z 28007KT 04/M06 A3026 RMK A01 T00391060  RH  048%=      5-min Rain = 0
KFL1 250145Z 29007KT 04/M06 A3026 RMK A01 T00391059  RH  049%=      5-min Rain = 0
KFL1 250146Z 28007KT 04/M06 A3026 RMK A01 T00391057  RH  050%=      5-min Rain = 0
KFL1 250147Z 28007KT 04/M06 A3027 RMK A01 T00361057  RH  050%=      5-min Rain = 0
KFL1 250148Z 28007KT 04/M06 A3027 RMK A01 T00371060  RH  049%=      5-min Rain = 0
KFL1 250149Z 28006KT 04/M06 A3027 RMK A01 T00381060  RH  049%=      5-min Rain = 0
KFL1 250150Z 28007KT 04/M06 A3027 RMK A01 T00381061  RH  048%=      5-min Rain = 0
KFL1 250151Z 28007KT 04/M06 A3027 RMK A01 T00381060  RH  048%=      5-min Rain = 0
KFL1 250152Z 28006KT 04/M06 A3027 RMK A01 T00381060  RH  049%=      5-min Rain = 0
KFL1 250153Z 28007KT 04/M06 A3027 RMK A01 T00391058  RH  049%=      5-min Rain = 0
KFL1 250154Z 28007KT 04/M06 A3027 RMK A01 T00371059  RH  050%=      5-min Rain = 0
KFL1 250155Z 29007KT 04/M06 A3027 RMK A01 T00351056  RH  051%=      5-min Rain = 0
KFL1 250156Z 28007KT 03/M06 A3027 RMK A01 T00311055  RH  053%=      5-min Rain = 0
KFL1 250157Z 29007KT 03/M06 A3027 RMK A01 T00281055  RH  054%=      5-min Rain = 0
KFL1 250158Z 29006KT 03/M06 A3027 RMK A01 T00281055  RH  054%=      5-min Rain = 0
KFL1 250159Z 29006KT 03/M06 A3027 RMK A01 T00271058  RH  053%=      5-min Rain = 0
KFL1 250200Z 30007KT 03/M06 A3027 RMK A01 T00291060  RH  052%=      5-min Rain = 0
KFL1 250201Z 30007KT 03/M06 A3027 RMK A01 T00301060  RH  051%=      5-min Rain = 0
KFL1 250202Z 30007KT 03/M06 A3027 RMK A01 T00311060  RH  051%=      5-min Rain = 0
KFL1 250203Z 30006KT 03/M06 A3027 RMK A01 T00311061  RH  051%=      5-min Rain = 0
KFL1 250204Z 30007KT 03/M06 A3027 RMK A01 T00321060  RH  051%=      5-min Rain = 0
KFL1 250205Z 30007KT 03/M06 A3027 RMK A01 T00331060  RH  051%=      5-min Rain = 0
KFL1 250206Z 30007KT 03/M06 A3027 RMK A01 T00321060  RH  051%=      5-min Rain = 0
KFL1 250207Z 30008KT 03/M06 A3027 RMK A01 T00331059  RH  051%=      5-min Rain = 0
KFL1 250208Z 30007KT 03/M06 A3027 RMK A01 T00321060  RH  051%=      5-min Rain = 0
KFL1 250209Z 30007KT 03/M06 A3027 RMK A01 T00331059  RH  051%=      5-min Rain = 0
KFL1 250210Z 30008KT 03/M06 A3027 RMK A01 T00321060  RH  051%=      5-min Rain = 0
KFL1 250211Z 30008KT 03/M06 A3027 RMK A01 T00341059  RH  051%=      5-min Rain = 0
KFL1 250212Z 30008KT 04/M06 A3027 RMK A01 T00351057  RH  051%=      5-min Rain = 0
KFL1 250213Z 30008KT 03/M06 A3027 RMK A01 T00331058  RH  051%=      5-min Rain = 0
KFL1 250214Z 30009KT 03/M06 A3027 RMK A01 T00331059  RH  051%=      5-min Rain = 0
KFL1 250215Z 30009KT 03/M06 A3027 RMK A01 T00331059  RH  051%=      5-min Rain = 0
KFL1 250216Z 30008KT 03/M06 A3027 RMK A01 T00331059  RH  051%=      5-min Rain = 0
KFL1 250217Z 30008KT 03/M06 A3027 RMK A01 T00341058  RH  051%=      5-min Rain = 0
KFL1 250218Z 30008KT 03/M06 A3028 RMK A01 T00341058  RH  051%=      5-min Rain = 0
KFL1 250219Z 30008KT 03/M06 A3028 RMK A01 T00341058  RH  051%=      5-min Rain = 0
KFL1 250220Z 30008KT 03/M06 A3028 RMK A01 T00331057  RH  051%=      5-min Rain = 0
KFL1 250221Z 30008KT 03/M06 A3028 RMK A01 T00321058  RH  051%=      5-min Rain = 0
KFL1 250222Z 30008KT 03/M06 A3028 RMK A01 T00331058  RH  051%=      5-min Rain = 0
KFL1 250223Z 30008KT 03/M06 A3028 RMK A01 T00321059  RH  051%=      5-min Rain = 0
KFL1 250224Z 30008KT 03/M06 A3028 RMK A01 T00331058  RH  051%=      5-min Rain = 0
KFL1 250225Z 30008KT 03/M06 A3028 RMK A01 T00331058  RH  051%=      5-min Rain = 0
KFL1 250226Z 30009KT 03/M06 A3028 RMK A01 T00331058  RH  051%=      5-min Rain = 0
KFL1 250227Z 30008KT 03/M06 A3028 RMK A01 T00321059  RH  051%=      5-min Rain = 0
KFL1 250228Z 30008KT 03/M06 A3028 RMK A01 T00341058  RH  051%=      5-min Rain = 0
KFL1 250229Z 30008KT 03/M06 A3028 RMK A01 T00341056  RH  052%=      5-min Rain = 0
KFL1 250230Z 30008KT 03/M06 A3028 RMK A01 T00321057  RH  052%=      5-min Rain = 0
KFL1 250231Z 30009KT 03/M06 A3028 RMK A01 T00331055  RH  052%=      5-min Rain = 0
KFL1 250232Z 30009KT 03/M06 A3028 RMK A01 T00321055  RH  053%=      5-min Rain = 0
KFL1 250233Z 30009KT 03/M05 A3028 RMK A01 T00321054  RH  053%=      5-min Rain = 0
KFL1 250234Z 30009KT 03/M06 A3028 RMK A01 T00291056  RH  054%=      5-min Rain = 0
KFL1 250235Z 30010KT 03/M06 A3028 RMK A01 T00291056  RH  054%=      5-min Rain = 0
KFL1 250236Z 29009KT 03/M05 A3028 RMK A01 T00301054  RH  054%=      5-min Rain = 0
KFL1 250237Z 29010KT 03/M06 A3028 RMK A01 T00291055  RH  054%=      5-min Rain = 0
KFL1 250238Z 30010KT 03/M06 A3028 RMK A01 T00291056  RH  054%=      5-min Rain = 0
KFL1 250239Z 29011KT 03/M05 A3028 RMK A01 T00291054  RH  055%=      5-min Rain = 0
KFL1 250240Z 29010KT 03/M05 A3028 RMK A01 T00261053  RH  056%=      5-min Rain = 0
KFL1 250241Z 29009KT 02/M05 A3028 RMK A01 T00241053  RH  057%=      5-min Rain = 0
KFL1 250242Z 29009KT 03/M05 A3028 RMK A01 T00251052  RH  057%=      5-min Rain = 0
KFL1 250243Z 29009KT 03/M05 A3028 RMK A01 T00251052  RH  057%=      5-min Rain = 0
KFL1 250244Z 29009KT 03/M05 A3028 RMK A01 T00261051  RH  057%=      5-min Rain = 0
KFL1 250245Z 29008KT 02/M05 A3028 RMK A01 T00241053  RH  057%=      5-min Rain = 0
KFL1 250246Z 29008KT 02/M05 A3028 RMK A01 T00241052  RH  057%=      5-min Rain = 0
KFL1 250247Z 30009KT 03/M05 A3029 RMK A01 T00251051  RH  057%=      5-min Rain = 0
KFL1 250248Z 29009KT 02/M05 A3029 RMK A01 T00241054  RH  057%=      5-min Rain = 0
KFL1 250249Z 30009KT 02/M06 A3029 RMK A01 T00241055  RH  056%=      5-min Rain = 0
KFL1 250250Z 30010KT 03/M06 A3029 RMK A01 T00251057  RH  055%=      5-min Rain = 0
KFL1 250251Z 30009KT 03/M06 A3029 RMK A01 T00271055  RH  055%=      5-min Rain = 0
KFL1 250252Z 30010KT 03/M06 A3029 RMK A01 T00261055  RH  055%=      5-min Rain = 0
KFL1 250253Z 29010KT 03/M06 A3029 RMK A01 T00251056  RH  055%=      5-min Rain = 0
KFL1 250254Z 29009KT 03/M06 A3029 RMK A01 T00261055  RH  055%=      5-min Rain = 0
KFL1 250255Z 30009KT 03/M06 A3029 RMK A01 T00261055  RH  055%=      5-min Rain = 0
KFL1 250256Z 30008KT 03/M06 A3029 RMK A01 T00261055  RH  055%=      5-min Rain = 0
KFL1 250257Z 29009KT 03/M06 A3029 RMK A01 T00251055  RH  055%=      5-min Rain = 0
KFL1 250258Z 29008KT 03/M06 A3029 RMK A01 T00261056  RH  055%=      5-min Rain = 0
KFL1 250259Z 29008KT 03/M05 A3029 RMK A01 T00261054  RH  056%=      5-min Rain = 0
KFL1 250300Z 29007KT 03/M05 A3029 RMK A01 T00251054  RH  056%=      5-min Rain = 0
KFL1 250301Z 29007KT 03/M06 A3029 RMK A01 T00261056  RH  055%=      5-min Rain = 0
KFL1 250302Z 29007KT 03/M06 A3029 RMK A01 T00271055  RH  055%=      5-min Rain = 0
KFL1 250303Z 29007KT 03/M06 A3029 RMK A01 T00251055  RH  056%=      5-min Rain = 0
KFL1 250304Z 29007KT 03/M06 A3029 RMK A01 T00251055  RH  056%=      5-min Rain = 0
KFL1 250305Z 29007KT 02/M05 A3029 RMK A01 T00241054  RH  056%=      5-min Rain = 0
KFL1 250306Z 29008KT 02/M06 A3029 RMK A01 T00231055  RH  057%=      5-min Rain = 0
KFL1 250307Z 29007KT 02/M05 A3029 RMK A01 T00221054  RH  057%=      5-min Rain = 0
KFL1 250308Z 29007KT 02/M06 A3029 RMK A01 T00221055  RH  057%=      5-min Rain = 0
KFL1 250309Z 29008KT 02/M05 A3029 RMK A01 T00221054  RH  057%=      5-min Rain = 0
KFL1 250310Z 29007KT 02/M05 A303 RMK A01 T00231054  RH  057%=      5-min Rain = 0
KFL1 250311Z 30007KT 02/M05 A303 RMK A01 T00221054  RH  057%=      5-min Rain = 0
KFL1 250312Z 30007KT 02/M06 A3029 RMK A01 T00221056  RH  056%=      5-min Rain = 0
KFL1 250313Z 30007KT 02/M06 A303 RMK A01 T00221058  RH  056%=      5-min Rain = 0
KFL1 250314Z 30006KT 02/M06 A303 RMK A01 T00231057  RH  056%=      5-min Rain = 0
KFL1 250315Z 30007KT 02/M06 A303 RMK A01 T00221058  RH  055%=      5-min Rain = 0
KFL1 250316Z 30007KT 02/M06 A303 RMK A01 T00241056  RH  056%=      5-min Rain = 0
KFL1 250317Z 30007KT 02/M06 A303 RMK A01 T00231057  RH  055%=      5-min Rain = 0
KFL1 250318Z 30007KT 02/M06 A303 RMK A01 T00221058  RH  056%=      5-min Rain = 0
KFL1 250319Z 30006KT 02/M06 A303 RMK A01 T00211060  RH  055%=      5-min Rain = 0
KFL1 250320Z 29006KT 02/M06 A303 RMK A01 T00221061  RH  054%=      5-min Rain = 0
KFL1 250321Z 30007KT 02/M06 A303 RMK A01 T00231062  RH  054%=      5-min Rain = 0
KFL1 250322Z 30008KT 03/M06 A303 RMK A01 T00261062  RH  052%=      5-min Rain = 0
KFL1 250323Z 30007KT 03/M06 A303 RMK A01 T00271063  RH  051%=      5-min Rain = 0
KFL1 250324Z 30007KT 03/M06 A303 RMK A01 T00281064  RH  051%=      5-min Rain = 0
KFL1 250325Z 30006KT 03/M07 A303 RMK A01 T00291065  RH  050%=      5-min Rain = 0
KFL1 250326Z 31006KT 03/M07 A303 RMK A01 T00291065  RH  050%=      5-min Rain = 0
KFL1 250327Z 30007KT 03/M07 A303 RMK A01 T00281066  RH  050%=      5-min Rain = 0
KFL1 250328Z 30007KT 03/M07 A303 RMK A01 T00301065  RH  050%=      5-min Rain = 0
KFL1 250329Z 31007KT 03/M07 A303 RMK A01 T00301066  RH  050%=      5-min Rain = 0
KFL1 250330Z 31006KT 03/M07 A303 RMK A01 T00321065  RH  049%=      5-min Rain = 0
KFL1 250331Z 31007KT 03/M07 A303 RMK A01 T00301067  RH  049%=      5-min Rain = 0
KFL1 250332Z 30007KT 03/M07 A303 RMK A01 T00311067  RH  049%=      5-min Rain = 0
KFL1 250333Z 30007KT 03/M07 A303 RMK A01 T00311067  RH  049%=      5-min Rain = 0
KFL1 250334Z 31006KT 03/M07 A303 RMK A01 T00301068  RH  048%=      5-min Rain = 0
KFL1 250335Z 31007KT 03/M07 A303 RMK A01 T00311068  RH  048%=      5-min Rain = 0
KFL1 250336Z 30006KT 03/M07 A303 RMK A01 T00311068  RH  048%=      5-min Rain = 0
KFL1 250337Z 31007KT 03/M07 A303 RMK A01 T00301068  RH  049%=      5-min Rain = 0
KFL1 250338Z 32007KT 03/M07 A303 RMK A01 T00291068  RH  049%=      5-min Rain = 0
KFL1 250339Z 32007KT 03/M07 A303 RMK A01 T00281069  RH  049%=      5-min Rain = 0
KFL1 250340Z 32007KT 03/M07 A303 RMK A01 T00281068  RH  049%=      5-min Rain = 0
KFL1 250341Z 32008KT 03/M07 A303 RMK A01 T00291069  RH  049%=      5-min Rain = 0
KFL1 250342Z 32009KT 03/M07 A303 RMK A01 T00291067  RH  049%=      5-min Rain = 0
KFL1 250343Z 32008KT 03/M07 A303 RMK A01 T00281068  RH  049%=      5-min Rain = 0
KFL1 250344Z 32008KT 03/M07 A303 RMK A01 T00291068  RH  049%=      5-min Rain = 0
KFL1 250345Z 32007KT 03/M07 A303 RMK A01 T00291067  RH  049%=      5-min Rain = 0
KFL1 250346Z 32008KT 03/M07 A303 RMK A01 T00271069  RH  049%=      5-min Rain = 0
KFL1 250347Z 32008KT 03/M07 A3031 RMK A01 T00251069  RH  050%=      5-min Rain = 0
KFL1 250348Z 32008KT 02/M07 A3031 RMK A01 T00241069  RH  050%=      5-min Rain = 0
KFL1 250349Z 32009KT 03/M07 A3031 RMK A01 T00251069  RH  050%=      5-min Rain = 0
KFL1 250350Z 32010KT 03/M07 A3031 RMK A01 T00271067  RH  050%=      5-min Rain = 0
KFL1 250351Z 33009KT 03/M07 A3031 RMK A01 T00271069  RH  049%=      5-min Rain = 0
KFL1 250352Z 33010KT 03/M07 A3031 RMK A01 T00271069  RH  049%=      5-min Rain = 0
KFL1 250353Z 33009KT 03/M07 A3031 RMK A01 T00271068  RH  050%=      5-min Rain = 0
KFL1 250354Z 32009KT 03/M07 A3031 RMK A01 T00281066  RH  050%=      5-min Rain = 0
KFL1 250355Z 32010KT 03/M07 A3031 RMK A01 T00271068  RH  050%=      5-min Rain = 0
KFL1 250356Z 32011KT 03/M07 A3031 RMK A01 T00281069  RH  049%=      5-min Rain = 0
KFL1 250357Z 32009KT 03/M07 A3031 RMK A01 T00291069  RH  048%=      5-min Rain = 0
KFL1 250358Z 32009KT 03/M07 A3031 RMK A01 T00301069  RH  048%=      5-min Rain = 0
KFL1 250359Z 33009KT 03/M07 A3031 RMK A01 T00291070  RH  048%=      5-min Rain = 0
KFL1 250400Z 33012KT 03/M07 A3031 RMK A01 T00301070  RH  048%=      5-min Rain = 0
KFL1 250401Z 32010KT 03/M07 A3031 RMK A01 T00301070  RH  048%=      5-min Rain = 0
KFL1 250402Z 32009KT 03/M07 A3031 RMK A01 T00271071  RH  048%=      5-min Rain = 0
KFL1 250403Z 33009KT 03/M07 A3031 RMK A01 T00281070  RH  049%=      5-min Rain = 0
KFL1 250404Z 33009KT 03/M07 A3031 RMK A01 T00261070  RH  049%=      5-min Rain = 0
KFL1 250405Z 33009KT 03/M07 A3031 RMK A01 T00251070  RH  050%=      5-min Rain = 0
KFL1 250406Z 33009KT 02/M07 A3031 RMK A01 T00221070  RH  050%=      5-min Rain = 0
KFL1 250407Z 33009KT 02/M07 A3031 RMK A01 T00231071  RH  050%=      5-min Rain = 0
KFL1 250408Z 33008KT 02/M07 A3032 RMK A01 T00241071  RH  049%=      5-min Rain = 0
KFL1 250409Z 33009KT 03/M07 A3032 RMK A01 T00251071  RH  049%=      5-min Rain = 0
KFL1 250410Z 33008KT 02/M07 A3032 RMK A01 T00231073  RH  049%=      5-min Rain = 0
KFL1 250411Z 33008KT 02/M07 A3032 RMK A01 T00241072  RH  049%=      5-min Rain = 0
KFL1 250412Z 34008KT 03/M07 A3032 RMK A01 T00251072  RH  049%=      5-min Rain = 0
KFL1 250413Z 33008KT 02/M07 A3032 RMK A01 T00241072  RH  049%=      5-min Rain = 0
KFL1 250414Z 34007KT 02/M07 A3032 RMK A01 T00231072  RH  050%=      5-min Rain = 0
KFL1 250415Z 34008KT 02/M07 A3032 RMK A01 T00211073  RH  050%=      5-min Rain = 0
KFL1 250416Z 34009KT 02/M07 A3032 RMK A01 T00191074  RH  050%=      5-min Rain = 0
KFL1 250417Z 34008KT 02/M07 A3032 RMK A01 T00181073  RH  051%=      5-min Rain = 0
KFL1 250418Z 34008KT 02/M07 A3032 RMK A01 T00181072  RH  051%=      5-min Rain = 0
KFL1 250419Z 34008KT 02/M07 A3032 RMK A01 T00181073  RH  051%=      5-min Rain = 0
KFL1 250420Z 34008KT 02/M07 A3032 RMK A01 T00181074  RH  051%=      5-min Rain = 0
KFL1 250421Z 34008KT 02/M07 A3032 RMK A01 T00181074  RH  051%=      5-min Rain = 0
KFL1 250422Z 34008KT 02/M07 A3032 RMK A01 T00181073  RH  051%=      5-min Rain = 0
KFL1 250423Z 34008KT 02/M07 A3032 RMK A01 T00181073  RH  051%=      5-min Rain = 0
KFL1 250424Z 34007KT 02/M08 A3032 RMK A01 T00181075  RH  050%=      5-min Rain = 0
KFL1 250425Z 34008KT 02/M08 A3032 RMK A01 T00181075  RH  050%=      5-min Rain = 0
KFL1 250426Z 33008KT 02/M08 A3032 RMK A01 T00191075  RH  050%=      5-min Rain = 0
KFL1 250427Z 33007KT 02/M08 A3032 RMK A01 T00191076  RH  050%=      5-min Rain = 0
KFL1 250428Z 33007KT 02/M08 A3032 RMK A01 T00201075  RH  049%=      5-min Rain = 0
KFL1 250429Z 33007KT 02/M08 A3032 RMK A01 T00201077  RH  049%=      5-min Rain = 0
KFL1 250430Z 33007KT 02/M08 A3032 RMK A01 T00201076  RH  049%=      5-min Rain = 0
KFL1 250431Z 33007KT 02/M08 A3032 RMK A01 T00181076  RH  050%=      5-min Rain = 0
KFL1 250432Z 33007KT 02/M08 A3032 RMK A01 T00181077  RH  050%=      5-min Rain = 0
KFL1 250433Z 32007KT 02/M08 A3032 RMK A01 T00181076  RH  050%=      5-min Rain = 0
KFL1 250434Z 32007KT 02/M08 A3032 RMK A01 T00191075  RH  050%=      5-min Rain = 0
KFL1 250435Z 32007KT 02/M08 A3032 RMK A01 T00221076  RH  049%=      5-min Rain = 0
KFL1 250436Z 32007KT 02/M08 A3032 RMK A01 T00221076  RH  048%=      5-min Rain = 0
KFL1 250437Z 32006KT 02/M08 A3032 RMK A01 T00211078  RH  048%=      5-min Rain = 0
KFL1 250438Z 32007KT 02/M08 A3033 RMK A01 T00201078  RH  048%=      5-min Rain = 0
KFL1 250439Z 32006KT 02/M08 A3033 RMK A01 T00211078  RH  048%=      5-min Rain = 0
KFL1 250440Z 32006KT 02/M08 A3033 RMK A01 T00201079  RH  048%=      5-min Rain = 0
KFL1 250441Z 33006KT 02/M08 A3033 RMK A01 T00201079  RH  048%=      5-min Rain = 0
KFL1 250442Z 32006KT 02/M08 A3033 RMK A01 T00211079  RH  048%=      5-min Rain = 0
KFL1 250443Z 32007KT 02/M08 A3033 RMK A01 T00221079  RH  047%=      5-min Rain = 0
KFL1 250444Z 33007KT 02/M08 A3033 RMK A01 T00231080  RH  047%=      5-min Rain = 0
KFL1 250445Z 33007KT 02/M08 A3033 RMK A01 T00231081  RH  046%=      5-min Rain = 0
KFL1 250446Z 34007KT 02/M08 A3033 RMK A01 T00201082  RH  047%=      5-min Rain = 0
KFL1 250447Z 34007KT 01/M08 A3033 RMK A01 T00141082  RH  049%=      5-min Rain = 0
KFL1 250448Z 34006KT 01/M08 A3033 RMK A01 T00071081  RH  052%=      5-min Rain = 0
KFL1 250449Z 35007KT M00/M08 A3033 RMK A01 T10011083  RH  054%=      5-min Rain = 0
KFL1 250450Z 35007KT 00/08 A3032 RMK A01 T00-00-81  RH  055%=      5-min Rain = 0
KFL1 250451Z 36007KT 00/M08 A3032 RMK A01 T00031079  RH  054%=      5-min Rain = 0
KFL1 250452Z 01007KT 00/M08 A3033 RMK A01 T00041078  RH  054%=      5-min Rain = 0
KFL1 250453Z 03006KT 00/M08 A3032 RMK A01 T00031079  RH  054%=      5-min Rain = 0
KFL1 250454Z 03006KT 01/M08 A3032 RMK A01 T00081080  RH  052%=      5-min Rain = 0
KFL1 250455Z 02005KT 01/M08 A3033 RMK A01 T00131079  RH  050%=      5-min Rain = 0
KFL1 250456Z 02006KT 00/M08 A3033 RMK A01 T00041084  RH  052%=      5-min Rain = 0
KFL1 250457Z 02006KT M00/M08 A3033 RMK A01 T10021083  RH  054%=      5-min Rain = 0
KFL1 250458Z 02006KT M00/M08 A3033 RMK A01 T10031081  RH  056%=      5-min Rain = 0
KFL1 250459Z 02005KT 00/M08 A3033 RMK A01 T00031078  RH  055%=      5-min Rain = 0

Page generated in 0.07 seconds.